CES233 VQPR-LBBG
Flight info
| Callsign | CES233 |
|---|---|
| Flight time | N/A |
| Altitude | 38000 |
| Route | PRO G348 TUMLI B345 NARAN L626 HW W85 SP M890 SULOM L509 NONIB J139 HANGU L509 TAPIS P173 DAVET B475 NINOP A909 RODAR N644 ROLIN UN644 SIN UW90 DEVMU UL852 NEGEM DCT RITAG Y195 NESAR |
| Aircraft | B738/M-SDE2E3FGHIRWXY/LB1 |
Departure
| Time | 2026-05-07 00:50 |
|---|---|
| Airport | Paro International Airport (VQPR) |
Arrival
| Time | N/A |
|---|---|
| Airport | Burgas Airport (LBBG) |
| Time | Latitude | Longitude | Altitude | Speed | Heading |
|---|---|---|---|---|---|
| 2026-05-07 00:48 | 27.41198 | 89.41929 | 7420 ft | 0 kts | 155° |
| 2026-05-07 00:49 | 27.41186 | 89.41930 | 7420 ft | 4 kts | 175° |
| 2026-05-07 00:49 | 27.41124 | 89.41966 | 7419 ft | 26 kts | 150° |
| 2026-05-07 00:49 | 27.40789 | 89.42179 | 7410 ft | 82 kts | 150° |
| 2026-05-07 00:49 | 27.40136 | 89.42596 | 7388 ft | 130 kts | 150° |
| 2026-05-07 00:50 | 27.39235 | 89.43173 | 7406 ft | 160 kts | 150° |
| 2026-05-07 00:50 | 27.38371 | 89.43867 | 7793 ft | 151 kts | 124° |
| 2026-05-07 00:50 | 27.37858 | 89.44975 | 7860 ft | 171 kts | 115° |
| 2026-05-07 00:50 | 27.37104 | 89.46065 | 8150 ft | 181 kts | 144° |
| 2026-05-07 00:51 | 27.35939 | 89.46702 | 8593 ft | 192 kts | 161° |
| 2026-05-07 00:51 | 27.34617 | 89.46996 | 9200 ft | 193 kts | 172° |
| 2026-05-07 00:51 | 27.33358 | 89.47274 | 9877 ft | 183 kts | 153° |
| 2026-05-07 00:51 | 27.32481 | 89.48270 | 10253 ft | 189 kts | 106° |
| 2026-05-07 00:52 | 27.32348 | 89.49825 | 10361 ft | 215 kts | 87° |
| 2026-05-07 00:52 | 27.32427 | 89.51527 | 11012 ft | 213 kts | 90° |
| 2026-05-07 00:52 | 27.32277 | 89.53064 | 11951 ft | 195 kts | 102° |
| 2026-05-07 00:52 | 27.31823 | 89.54565 | 12127 ft | 216 kts | 115° |
| 2026-05-07 00:53 | 27.30994 | 89.56047 | 12370 ft | 229 kts | 129° |
| 2026-05-07 00:53 | 27.29692 | 89.57091 | 12642 ft | 242 kts | 162° |
| 2026-05-07 00:53 | 27.27968 | 89.57078 | 12851 ft | 258 kts | 198° |
| 2026-05-07 00:53 | 27.26457 | 89.55874 | 12989 ft | 277 kts | 233° |
| 2026-05-07 00:54 | 27.25765 | 89.53838 | 13266 ft | 288 kts | 266° |
| 2026-05-07 00:54 | 27.26153 | 89.51668 | 13679 ft | 291 kts | 298° |
| 2026-05-07 00:54 | 27.27351 | 89.49828 | 14227 ft | 291 kts | 311° |
| 2026-05-07 00:54 | 27.28518 | 89.47977 | 14652 ft | 297 kts | 290° |
| 2026-05-07 00:55 | 27.28823 | 89.45668 | 15002 ft | 303 kts | 260° |
| 2026-05-07 00:55 | 27.28075 | 89.43446 | 15234 ft | 313 kts | 234° |
| 2026-05-07 00:55 | 27.26679 | 89.41509 | 15515 ft | 325 kts | 227° |
| 2026-05-07 00:55 | 27.25207 | 89.39534 | 15786 ft | 338 kts | 231° |
| 2026-05-07 00:56 | 27.23827 | 89.37358 | 16220 ft | 345 kts | 236° |
| 2026-05-07 00:56 | 27.22570 | 89.35066 | 16778 ft | 347 kts | 239° |
| 2026-05-07 00:56 | 27.21778 | 89.33518 | 17151 ft | 347 kts | 239° |
| 2026-05-07 00:56 | 27.20797 | 89.31543 | 17646 ft | 347 kts | 240° |
| 2026-05-07 00:57 | 27.19627 | 89.29164 | 18167 ft | 349 kts | 240° |
| 2026-05-07 00:57 | 27.18456 | 89.26790 | 18684 ft | 350 kts | 240° |
| 2026-05-07 00:57 | 27.17261 | 89.24377 | 19207 ft | 352 kts | 240° |
| 2026-05-07 00:57 | 27.16068 | 89.21987 | 19701 ft | 353 kts | 240° |
| 2026-05-07 00:58 | 27.14869 | 89.19595 | 20166 ft | 355 kts | 240° |
| 2026-05-07 00:58 | 27.13657 | 89.17183 | 20691 ft | 354 kts | 240° |
| 2026-05-07 00:58 | 27.12443 | 89.14765 | 21105 ft | 358 kts | 240° |
| 2026-05-07 00:58 | 27.11219 | 89.12327 | 21544 ft | 360 kts | 240° |
| 2026-05-07 00:59 | 27.08762 | 89.07439 | 22452 ft | 362 kts | 240° |
| 2026-05-07 00:59 | 27.07528 | 89.04984 | 22850 ft | 364 kts | 240° |
| 2026-05-07 00:59 | 27.06277 | 89.02498 | 23369 ft | 362 kts | 240° |
| 2026-05-07 01:00 | 27.05050 | 89.00057 | 23774 ft | 363 kts | 240° |
| 2026-05-07 01:00 | 27.03807 | 88.97588 | 24228 ft | 362 kts | 240° |
| 2026-05-07 01:00 | 27.02579 | 88.95145 | 24620 ft | 363 kts | 240° |
| 2026-05-07 01:00 | 27.01345 | 88.92687 | 25013 ft | 363 kts | 240° |
| 2026-05-07 01:01 | 27.00104 | 88.90218 | 25365 ft | 364 kts | 241° |
| 2026-05-07 01:01 | 26.98857 | 88.87736 | 25804 ft | 363 kts | 241° |
| 2026-05-07 01:01 | 26.97612 | 88.85279 | 26136 ft | 364 kts | 240° |
| 2026-05-07 01:01 | 26.96318 | 88.82842 | 26486 ft | 365 kts | 239° |
| 2026-05-07 01:02 | 26.95002 | 88.80431 | 26856 ft | 364 kts | 239° |
| 2026-05-07 01:02 | 26.93668 | 88.78012 | 27211 ft | 364 kts | 239° |
| 2026-05-07 01:02 | 26.92333 | 88.75589 | 27488 ft | 366 kts | 239° |
| 2026-05-07 01:02 | 26.90995 | 88.73155 | 27858 ft | 365 kts | 239° |
| 2026-05-07 01:03 | 26.89678 | 88.70750 | 28138 ft | 366 kts | 239° |
| 2026-05-07 01:03 | 26.88331 | 88.68285 | 28441 ft | 366 kts | 240° |
| 2026-05-07 01:03 | 26.87023 | 88.65889 | 28806 ft | 365 kts | 239° |
| 2026-05-07 01:03 | 26.85685 | 88.63441 | 29015 ft | 368 kts | 240° |
| 2026-05-07 01:04 | 26.84346 | 88.60986 | 29308 ft | 368 kts | 240° |
| 2026-05-07 01:04 | 26.83010 | 88.58540 | 29519 ft | 371 kts | 239° |
| 2026-05-07 01:04 | 26.81668 | 88.56082 | 29776 ft | 372 kts | 240° |
| 2026-05-07 01:04 | 26.80315 | 88.53606 | 29997 ft | 374 kts | 239° |
| 2026-05-07 01:05 | 26.78947 | 88.51105 | 30218 ft | 375 kts | 240° |
| 2026-05-07 01:05 | 26.77589 | 88.48623 | 30524 ft | 374 kts | 240° |
| 2026-05-07 01:05 | 26.76218 | 88.46119 | 30653 ft | 378 kts | 239° |
| 2026-05-07 01:05 | 26.74913 | 88.43610 | 30914 ft | 378 kts | 243° |
| 2026-05-07 01:06 | 26.73822 | 88.40926 | 31143 ft | 379 kts | 249° |
| 2026-05-07 01:06 | 26.73025 | 88.38075 | 31255 ft | 383 kts | 255° |
| 2026-05-07 01:06 | 26.72566 | 88.35132 | 31504 ft | 385 kts | 261° |
| 2026-05-07 01:06 | 26.72438 | 88.32121 | 31723 ft | 389 kts | 267° |
| 2026-05-07 01:07 | 26.72644 | 88.29104 | 31902 ft | 394 kts | 273° |
| 2026-05-07 01:07 | 26.73193 | 88.26059 | 32098 ft | 400 kts | 279° |
| 2026-05-07 01:07 | 26.74070 | 88.23099 | 32295 ft | 406 kts | 285° |
| 2026-05-07 01:07 | 26.75266 | 88.20251 | 32589 ft | 411 kts | 291° |
| 2026-05-07 01:08 | 26.76731 | 88.17448 | 32676 ft | 419 kts | 294° |
| 2026-05-07 01:08 | 26.78318 | 88.14718 | 32982 ft | 419 kts | 296° |
| 2026-05-07 01:08 | 26.79962 | 88.11978 | 33144 ft | 422 kts | 296° |
| 2026-05-07 01:08 | 26.81594 | 88.09255 | 33398 ft | 421 kts | 296° |
| 2026-05-07 01:09 | 26.83200 | 88.06547 | 33564 ft | 423 kts | 296° |
| 2026-05-07 01:09 | 26.84814 | 88.03777 | 33742 ft | 424 kts | 295° |
| 2026-05-07 01:09 | 26.86424 | 88.00981 | 33887 ft | 426 kts | 295° |
| 2026-05-07 01:09 | 26.88021 | 87.98175 | 34069 ft | 426 kts | 295° |
| 2026-05-07 01:10 | 26.89600 | 87.95384 | 34327 ft | 425 kts | 295° |
| 2026-05-07 01:10 | 26.91176 | 87.92587 | 34599 ft | 423 kts | 295° |
| 2026-05-07 01:10 | 26.92730 | 87.89820 | 34910 ft | 421 kts | 295° |
| 2026-05-07 01:10 | 26.94277 | 87.87056 | 35122 ft | 421 kts | 295° |
| 2026-05-07 01:11 | 26.95834 | 87.84267 | 35233 ft | 423 kts | 294° |
| 2026-05-07 01:11 | 26.97388 | 87.81477 | 35402 ft | 423 kts | 295° |
| 2026-05-07 01:11 | 26.98947 | 87.78679 | 35649 ft | 422 kts | 295° |
| 2026-05-07 01:11 | 27.00503 | 87.75883 | 35848 ft | 421 kts | 295° |
| 2026-05-07 01:12 | 27.02056 | 87.73093 | 36043 ft | 420 kts | 295° |
| 2026-05-07 01:12 | 27.03597 | 87.70323 | 36179 ft | 421 kts | 295° |
| 2026-05-07 01:12 | 27.05145 | 87.67535 | 36262 ft | 422 kts | 295° |
| 2026-05-07 01:12 | 27.06700 | 87.64736 | 36426 ft | 421 kts | 295° |
| 2026-05-07 01:13 | 27.08241 | 87.61961 | 36641 ft | 420 kts | 295° |
| 2026-05-07 01:13 | 27.09793 | 87.59166 | 36780 ft | 420 kts | 295° |
| 2026-05-07 01:13 | 27.11351 | 87.56355 | 36895 ft | 420 kts | 295° |
| 2026-05-07 01:14 | 27.14424 | 87.50803 | 37061 ft | 421 kts | 295° |
| 2026-05-07 01:14 | 27.17540 | 87.45164 | 37253 ft | 421 kts | 295° |
| 2026-05-07 01:14 | 27.19081 | 87.42376 | 37363 ft | 420 kts | 295° |
| 2026-05-07 01:15 | 27.20612 | 87.39604 | 37463 ft | 419 kts | 295° |
| 2026-05-07 01:15 | 27.23686 | 87.34032 | 37641 ft | 419 kts | 294° |
| 2026-05-07 01:16 | 27.26762 | 87.28448 | 37806 ft | 420 kts | 294° |
| 2026-05-07 01:16 | 27.29773 | 87.22805 | 38022 ft | 416 kts | 290° |
| 2026-05-07 01:17 | 27.32006 | 87.16894 | 38172 ft | 408 kts | 281° |
| 2026-05-07 01:17 | 27.33447 | 87.10760 | 38381 ft | 403 kts | 277° |
| 2026-05-07 01:18 | 27.34652 | 87.04613 | 38365 ft | 403 kts | 277° |
| 2026-05-07 01:18 | 27.35835 | 86.98443 | 38434 ft | 401 kts | 277° |
| 2026-05-07 01:19 | 27.37018 | 86.92328 | 38484 ft | 401 kts | 277° |
| 2026-05-07 01:19 | 27.38219 | 86.86150 | 38464 ft | 402 kts | 277° |
| 2026-05-07 01:20 | 27.39417 | 86.79996 | 38420 ft | 403 kts | 277° |
| 2026-05-07 01:20 | 27.40615 | 86.73838 | 38420 ft | 404 kts | 277° |
| 2026-05-07 01:21 | 27.41812 | 86.67674 | 38404 ft | 404 kts | 277° |
| 2026-05-07 01:21 | 27.43005 | 86.61517 | 38511 ft | 402 kts | 277° |
| 2026-05-07 01:22 | 27.44197 | 86.55348 | 38454 ft | 404 kts | 278° |
| 2026-05-07 01:22 | 27.45387 | 86.49174 | 38447 ft | 404 kts | 278° |
| 2026-05-07 01:23 | 27.46569 | 86.43030 | 38485 ft | 404 kts | 277° |
| 2026-05-07 01:23 | 27.47752 | 86.36851 | 38438 ft | 404 kts | 277° |
| 2026-05-07 01:24 | 27.48940 | 86.30644 | 38450 ft | 405 kts | 277° |
| 2026-05-07 01:24 | 27.50128 | 86.24432 | 38413 ft | 407 kts | 277° |
| 2026-05-07 01:25 | 27.51337 | 86.18238 | 38437 ft | 407 kts | 278° |
| 2026-05-07 01:25 | 27.52556 | 86.12022 | 38408 ft | 408 kts | 278° |
| 2026-05-07 01:26 | 27.53777 | 86.05772 | 38330 ft | 409 kts | 277° |
| 2026-05-07 01:26 | 27.54997 | 85.99504 | 38334 ft | 409 kts | 278° |
| 2026-05-07 01:27 | 27.56209 | 85.93250 | 38358 ft | 409 kts | 277° |
| 2026-05-07 01:27 | 27.57414 | 85.87010 | 38325 ft | 409 kts | 278° |
| 2026-05-07 01:28 | 27.58623 | 85.80737 | 38298 ft | 409 kts | 278° |
| 2026-05-07 01:28 | 27.59824 | 85.74496 | 38283 ft | 410 kts | 278° |
| 2026-05-07 01:29 | 27.61029 | 85.68211 | 38289 ft | 409 kts | 278° |
| 2026-05-07 01:29 | 27.62223 | 85.61969 | 38248 ft | 409 kts | 278° |
| 2026-05-07 01:30 | 27.63421 | 85.55693 | 38221 ft | 409 kts | 278° |
| 2026-05-07 01:30 | 27.64617 | 85.49414 | 38215 ft | 409 kts | 278° |
| 2026-05-07 01:31 | 27.65808 | 85.43137 | 38149 ft | 410 kts | 278° |
| 2026-05-07 01:31 | 27.66945 | 85.36863 | 38141 ft | 408 kts | 275° |
| 2026-05-07 01:32 | 27.67451 | 85.30516 | 38131 ft | 405 kts | 269° |
| 2026-05-07 01:32 | 27.67537 | 85.24177 | 38117 ft | 406 kts | 268° |
| 2026-05-07 01:33 | 27.67557 | 85.17823 | 38125 ft | 406 kts | 268° |
| 2026-05-07 01:33 | 27.67584 | 85.11478 | 38118 ft | 406 kts | 268° |
| 2026-05-07 01:34 | 27.67621 | 85.05088 | 38094 ft | 406 kts | 268° |
| 2026-05-07 01:34 | 27.67665 | 84.98721 | 38065 ft | 407 kts | 268° |
| 2026-05-07 01:35 | 27.67707 | 84.92365 | 38059 ft | 407 kts | 268° |
| 2026-05-07 01:35 | 27.67747 | 84.85965 | 38059 ft | 407 kts | 268° |
| 2026-05-07 01:36 | 27.67785 | 84.79628 | 38064 ft | 406 kts | 268° |
| 2026-05-07 01:36 | 27.67819 | 84.73251 | 38059 ft | 406 kts | 268° |
| 2026-05-07 01:37 | 27.67852 | 84.66875 | 38024 ft | 407 kts | 268° |
| 2026-05-07 01:37 | 27.67881 | 84.60523 | 38016 ft | 407 kts | 268° |
| 2026-05-07 01:38 | 27.67908 | 84.54140 | 37989 ft | 407 kts | 268° |
| 2026-05-07 01:38 | 27.67957 | 84.47753 | 37973 ft | 407 kts | 270° |
| 2026-05-07 01:39 | 27.68614 | 84.41402 | 37976 ft | 410 kts | 279° |
| 2026-05-07 01:39 | 27.70191 | 84.35216 | 37983 ft | 413 kts | 284° |
| 2026-05-07 01:40 | 27.72078 | 84.29082 | 37988 ft | 414 kts | 285° |
| 2026-05-07 01:40 | 27.73999 | 84.22948 | 37985 ft | 414 kts | 285° |
| 2026-05-07 01:41 | 27.75898 | 84.16794 | 37997 ft | 414 kts | 285° |
| 2026-05-07 01:41 | 27.77774 | 84.10640 | 38006 ft | 415 kts | 285° |
| 2026-05-07 01:42 | 27.79636 | 84.04494 | 38030 ft | 414 kts | 284° |
| 2026-05-07 01:42 | 27.81491 | 83.98343 | 38038 ft | 414 kts | 285° |
| 2026-05-07 01:43 | 27.83346 | 83.92183 | 38046 ft | 414 kts | 285° |
| 2026-05-07 01:43 | 27.85195 | 83.86030 | 38047 ft | 414 kts | 285° |
| 2026-05-07 01:44 | 27.87038 | 83.79878 | 38040 ft | 415 kts | 285° |
| 2026-05-07 01:44 | 27.88878 | 83.73725 | 38037 ft | 415 kts | 285° |
| 2026-05-07 01:45 | 27.90728 | 83.67532 | 38035 ft | 414 kts | 285° |
| 2026-05-07 01:45 | 27.92570 | 83.61361 | 38037 ft | 414 kts | 285° |
| 2026-05-07 01:46 | 27.94402 | 83.55206 | 38044 ft | 414 kts | 285° |
| 2026-05-07 01:46 | 27.96341 | 83.49058 | 38065 ft | 414 kts | 287° |
| 2026-05-07 01:47 | 27.98450 | 83.43007 | 38061 ft | 415 kts | 288° |
| 2026-05-07 01:47 | 28.00577 | 83.36953 | 38059 ft | 414 kts | 288° |
| 2026-05-07 01:48 | 28.02690 | 83.30878 | 38065 ft | 414 kts | 287° |
| 2026-05-07 01:48 | 28.04771 | 83.24842 | 38129 ft | 414 kts | 287° |
| 2026-05-07 01:49 | 28.06849 | 83.18774 | 38131 ft | 414 kts | 287° |
| 2026-05-07 01:49 | 28.08924 | 83.12700 | 38138 ft | 414 kts | 287° |
| 2026-05-07 01:50 | 28.11015 | 83.06564 | 38146 ft | 415 kts | 287° |
| 2026-05-07 01:50 | 28.13081 | 83.00495 | 38169 ft | 415 kts | 287° |
| 2026-05-07 01:51 | 28.15159 | 82.94382 | 38162 ft | 415 kts | 287° |
| 2026-05-07 01:51 | 28.17224 | 82.88294 | 38121 ft | 416 kts | 288° |
| 2026-05-07 01:52 | 28.19296 | 82.82179 | 38133 ft | 415 kts | 287° |
| 2026-05-07 01:52 | 28.21367 | 82.76053 | 38113 ft | 415 kts | 287° |
| 2026-05-07 01:53 | 28.23424 | 82.69957 | 38115 ft | 415 kts | 287° |
| 2026-05-07 01:53 | 28.25475 | 82.63872 | 38177 ft | 413 kts | 287° |
| 2026-05-07 01:54 | 28.27522 | 82.57791 | 38207 ft | 412 kts | 288° |
| 2026-05-07 01:54 | 28.29568 | 82.51698 | 38244 ft | 411 kts | 288° |
| 2026-05-07 01:55 | 28.31595 | 82.45657 | 38262 ft | 411 kts | 288° |
| 2026-05-07 01:55 | 28.33629 | 82.39577 | 38236 ft | 411 kts | 287° |
| 2026-05-07 01:56 | 28.35656 | 82.33507 | 38191 ft | 412 kts | 287° |
| 2026-05-07 01:56 | 28.37686 | 82.27419 | 38218 ft | 412 kts | 287° |
| 2026-05-07 01:57 | 28.39715 | 82.21329 | 38221 ft | 413 kts | 287° |
| 2026-05-07 01:57 | 28.41737 | 82.15242 | 38175 ft | 414 kts | 287° |
| 2026-05-07 01:58 | 28.43773 | 82.09104 | 38172 ft | 414 kts | 287° |
| 2026-05-07 01:58 | 28.45797 | 82.02995 | 38145 ft | 414 kts | 287° |
| 2026-05-07 01:59 | 28.47821 | 81.96875 | 38165 ft | 413 kts | 287° |
| 2026-05-07 01:59 | 28.49853 | 81.90725 | 38158 ft | 414 kts | 287° |
| 2026-05-07 02:00 | 28.51870 | 81.84603 | 38136 ft | 414 kts | 287° |
| 2026-05-07 02:00 | 28.53880 | 81.78492 | 38098 ft | 414 kts | 287° |
| 2026-05-07 02:01 | 28.55898 | 81.72347 | 38102 ft | 414 kts | 287° |
| 2026-05-07 02:01 | 28.57906 | 81.66223 | 38137 ft | 413 kts | 288° |
| 2026-05-07 02:02 | 28.59825 | 81.60067 | 38157 ft | 411 kts | 285° |
| 2026-05-07 02:02 | 28.61422 | 81.53848 | 38124 ft | 411 kts | 283° |
| 2026-05-07 02:03 | 28.62963 | 81.47600 | 38125 ft | 411 kts | 284° |
| 2026-05-07 02:03 | 28.64539 | 81.41313 | 38090 ft | 412 kts | 284° |
| 2026-05-07 02:04 | 28.66125 | 81.35075 | 38027 ft | 413 kts | 284° |
| 2026-05-07 02:04 | 28.67728 | 81.28795 | 38020 ft | 414 kts | 284° |
| 2026-05-07 02:05 | 28.69334 | 81.22508 | 37954 ft | 415 kts | 284° |
| 2026-05-07 02:05 | 28.70944 | 81.16200 | 37964 ft | 415 kts | 284° |
| 2026-05-07 02:06 | 28.72559 | 81.09855 | 37952 ft | 415 kts | 284° |
| 2026-05-07 02:06 | 28.74157 | 81.03570 | 37938 ft | 415 kts | 283° |
| 2026-05-07 02:07 | 28.75757 | 80.97262 | 37947 ft | 415 kts | 284° |
| 2026-05-07 02:07 | 28.78152 | 80.87791 | 37969 ft | 414 kts | 284° |
| 2026-05-07 02:08 | 28.79734 | 80.81520 | 37956 ft | 414 kts | 284° |
| 2026-05-07 02:08 | 28.81320 | 80.75215 | 37961 ft | 414 kts | 284° |
| 2026-05-07 02:09 | 28.82904 | 80.68909 | 37969 ft | 414 kts | 284° |
| 2026-05-07 02:09 | 28.84480 | 80.62613 | 37965 ft | 414 kts | 284° |
| 2026-05-07 02:10 | 28.86066 | 80.56272 | 37985 ft | 414 kts | 284° |
| 2026-05-07 02:10 | 28.87633 | 80.49993 | 37993 ft | 413 kts | 284° |
| 2026-05-07 02:11 | 28.89207 | 80.43668 | 37985 ft | 414 kts | 284° |
| 2026-05-07 02:11 | 28.90769 | 80.37382 | 37970 ft | 414 kts | 284° |
| 2026-05-07 02:12 | 28.92337 | 80.31052 | 37953 ft | 415 kts | 284° |
| 2026-05-07 02:12 | 28.93908 | 80.24701 | 37927 ft | 416 kts | 284° |
| 2026-05-07 02:13 | 28.95472 | 80.18354 | 37918 ft | 416 kts | 283° |
| 2026-05-07 02:13 | 28.96693 | 80.11897 | 37910 ft | 415 kts | 277° |
| 2026-05-07 02:14 | 28.97404 | 80.05363 | 37899 ft | 415 kts | 276° |
| 2026-05-07 02:14 | 28.98023 | 79.98818 | 37897 ft | 415 kts | 276° |
| 2026-05-07 02:15 | 28.98649 | 79.92303 | 37897 ft | 415 kts | 276° |
| 2026-05-07 02:15 | 28.99297 | 79.85735 | 37915 ft | 415 kts | 276° |
| 2026-05-07 02:16 | 28.99950 | 79.79195 | 37899 ft | 415 kts | 277° |
| 2026-05-07 02:16 | 29.00600 | 79.72694 | 37900 ft | 415 kts | 277° |
| 2026-05-07 02:17 | 29.01256 | 79.66117 | 37907 ft | 415 kts | 277° |
| 2026-05-07 02:17 | 29.01906 | 79.59568 | 37916 ft | 415 kts | 277° |
| 2026-05-07 02:18 | 29.02695 | 79.53043 | 37911 ft | 415 kts | 282° |
| 2026-05-07 02:18 | 29.04752 | 79.46943 | 37917 ft | 417 kts | 298° |
| 2026-05-07 02:19 | 29.08259 | 79.41602 | 37920 ft | 421 kts | 309° |
| 2026-05-07 02:19 | 29.12385 | 79.36801 | 37918 ft | 423 kts | 313° |
| 2026-05-07 02:20 | 29.16681 | 79.32131 | 37926 ft | 424 kts | 313° |
| 2026-05-07 02:20 | 29.20964 | 79.27463 | 37936 ft | 425 kts | 312° |
| 2026-05-07 02:21 | 29.25214 | 79.22777 | 37945 ft | 426 kts | 312° |
| 2026-05-07 02:21 | 29.29459 | 79.18055 | 37973 ft | 426 kts | 312° |
| 2026-05-07 02:22 | 29.33703 | 79.13313 | 37983 ft | 426 kts | 312° |
| 2026-05-07 02:22 | 29.37934 | 79.08577 | 37995 ft | 426 kts | 312° |
| 2026-05-07 02:23 | 29.42185 | 79.03808 | 38014 ft | 426 kts | 312° |
| 2026-05-07 02:23 | 29.46417 | 78.99053 | 37987 ft | 426 kts | 312° |
| 2026-05-07 02:24 | 29.50655 | 78.94286 | 37996 ft | 426 kts | 312° |
| 2026-05-07 02:24 | 29.54880 | 78.89529 | 38026 ft | 426 kts | 313° |
| 2026-05-07 02:25 | 29.59132 | 78.84736 | 38019 ft | 426 kts | 313° |
| 2026-05-07 02:25 | 29.63368 | 78.79955 | 38020 ft | 427 kts | 313° |
| 2026-05-07 02:26 | 29.67597 | 78.75176 | 38014 ft | 427 kts | 313° |
| 2026-05-07 02:26 | 29.71860 | 78.70354 | 38024 ft | 427 kts | 313° |
| 2026-05-07 02:27 | 29.76093 | 78.65561 | 38019 ft | 426 kts | 313° |
| 2026-05-07 02:27 | 29.80326 | 78.60760 | 38024 ft | 426 kts | 313° |
| 2026-05-07 02:28 | 29.84577 | 78.55931 | 38030 ft | 426 kts | 313° |
| 2026-05-07 02:28 | 29.88823 | 78.51102 | 38053 ft | 426 kts | 313° |
| 2026-05-07 02:29 | 29.93040 | 78.46300 | 38041 ft | 426 kts | 313° |
| 2026-05-07 02:29 | 29.97257 | 78.41492 | 38012 ft | 426 kts | 313° |
| 2026-05-07 02:30 | 30.01497 | 78.36656 | 37999 ft | 426 kts | 313° |
| 2026-05-07 02:30 | 30.05712 | 78.31838 | 37988 ft | 426 kts | 313° |
| 2026-05-07 02:31 | 30.09926 | 78.26995 | 37963 ft | 426 kts | 311° |
| 2026-05-07 02:31 | 30.13441 | 78.21484 | 37953 ft | 424 kts | 297° |
| 2026-05-07 02:32 | 30.15465 | 78.15083 | 37951 ft | 425 kts | 284° |
| 2026-05-07 02:32 | 30.15948 | 78.08225 | 37958 ft | 430 kts | 268° |
| 2026-05-07 02:33 | 30.14826 | 78.01378 | 37955 ft | 436 kts | 259° |
| 2026-05-07 02:33 | 30.13053 | 77.94665 | 37942 ft | 439 kts | 257° |
| 2026-05-07 02:34 | 30.11154 | 77.87952 | 37943 ft | 439 kts | 256° |
| 2026-05-07 02:34 | 30.09270 | 77.81255 | 37943 ft | 440 kts | 257° |
| 2026-05-07 02:35 | 30.07395 | 77.74512 | 37931 ft | 440 kts | 257° |
| 2026-05-07 02:35 | 30.05533 | 77.67778 | 37923 ft | 440 kts | 257° |
| 2026-05-07 02:36 | 30.03802 | 77.61039 | 37910 ft | 436 kts | 262° |
| 2026-05-07 02:36 | 30.03447 | 77.54146 | 37908 ft | 425 kts | 279° |
| 2026-05-07 02:37 | 30.04781 | 77.47529 | 37903 ft | 421 kts | 291° |
| 2026-05-07 02:37 | 30.07560 | 77.41627 | 37904 ft | 419 kts | 308° |
| 2026-05-07 02:38 | 30.11659 | 77.36786 | 37906 ft | 421 kts | 319° |
| 2026-05-07 02:38 | 30.16633 | 77.33160 | 37915 ft | 426 kts | 329° |
| 2026-05-07 02:39 | 30.22000 | 77.30100 | 37908 ft | 428 kts | 331° |
| 2026-05-07 02:39 | 30.27361 | 77.27123 | 37917 ft | 429 kts | 331° |
| 2026-05-07 02:40 | 30.32746 | 77.24071 | 37923 ft | 429 kts | 330° |
| 2026-05-07 02:40 | 30.37983 | 77.20783 | 37926 ft | 426 kts | 324° |
| 2026-05-07 02:41 | 30.42393 | 77.16242 | 37961 ft | 422 kts | 310° |
| 2026-05-07 02:41 | 30.46085 | 77.10917 | 37950 ft | 423 kts | 307° |
| 2026-05-07 02:42 | 30.49638 | 77.05396 | 37949 ft | 423 kts | 306° |
| 2026-05-07 02:42 | 30.53185 | 76.99871 | 37929 ft | 423 kts | 306° |
| 2026-05-07 02:43 | 30.56708 | 76.94428 | 37918 ft | 423 kts | 306° |
| 2026-05-07 02:43 | 30.60256 | 76.88969 | 37907 ft | 422 kts | 307° |
| 2026-05-07 02:44 | 30.63831 | 76.83478 | 37898 ft | 422 kts | 307° |
| 2026-05-07 02:44 | 30.67203 | 76.77899 | 37899 ft | 422 kts | 301° |
| 2026-05-07 02:45 | 30.69899 | 76.71812 | 37892 ft | 423 kts | 295° |
| 2026-05-07 02:45 | 30.72173 | 76.65433 | 37895 ft | 424 kts | 293° |
| 2026-05-07 02:46 | 30.74337 | 76.59063 | 37906 ft | 424 kts | 293° |
| 2026-05-07 02:46 | 30.76491 | 76.52702 | 37901 ft | 424 kts | 293° |
| 2026-05-07 02:47 | 30.78664 | 76.46309 | 37905 ft | 424 kts | 294° |
| 2026-05-07 02:47 | 30.80837 | 76.39925 | 37916 ft | 424 kts | 294° |
| 2026-05-07 02:48 | 30.83014 | 76.33526 | 37904 ft | 424 kts | 293° |
| 2026-05-07 02:48 | 30.85184 | 76.27137 | 37916 ft | 424 kts | 293° |
| 2026-05-07 02:49 | 30.87352 | 76.20744 | 37895 ft | 424 kts | 293° |
| 2026-05-07 02:49 | 30.89520 | 76.14337 | 37886 ft | 425 kts | 293° |
| 2026-05-07 02:50 | 30.91673 | 76.07965 | 37905 ft | 424 kts | 293° |
| 2026-05-07 02:50 | 30.93833 | 76.01560 | 37887 ft | 424 kts | 293° |
| 2026-05-07 02:51 | 30.95994 | 75.95140 | 37868 ft | 424 kts | 293° |
| 2026-05-07 02:51 | 30.98141 | 75.88746 | 37865 ft | 425 kts | 293° |
| 2026-05-07 02:52 | 31.00287 | 75.82341 | 37859 ft | 424 kts | 293° |
| 2026-05-07 02:52 | 31.02426 | 75.75952 | 37855 ft | 424 kts | 293° |
| 2026-05-07 02:53 | 31.04574 | 75.69518 | 37859 ft | 424 kts | 294° |
| 2026-05-07 02:53 | 31.06724 | 75.63071 | 37853 ft | 424 kts | 294° |
| 2026-05-07 02:54 | 31.08861 | 75.56650 | 37853 ft | 425 kts | 294° |
| 2026-05-07 02:54 | 31.10990 | 75.50237 | 37848 ft | 425 kts | 294° |
| 2026-05-07 02:55 | 31.12991 | 75.43732 | 37853 ft | 427 kts | 290° |
| 2026-05-07 02:55 | 31.14663 | 75.37052 | 37848 ft | 428 kts | 289° |
| 2026-05-07 02:56 | 31.16277 | 75.30360 | 37845 ft | 429 kts | 289° |
| 2026-05-07 02:56 | 31.17922 | 75.23670 | 37845 ft | 429 kts | 289° |
| 2026-05-07 02:57 | 31.19583 | 75.17009 | 37841 ft | 429 kts | 289° |
| 2026-05-07 02:57 | 31.21261 | 75.10325 | 37840 ft | 429 kts | 289° |
| 2026-05-07 02:58 | 31.22950 | 75.03602 | 37841 ft | 430 kts | 290° |
| 2026-05-07 02:58 | 31.24622 | 74.96929 | 37848 ft | 430 kts | 290° |
| 2026-05-07 02:59 | 31.26301 | 74.90219 | 37852 ft | 431 kts | 289° |
| 2026-05-07 02:59 | 31.27972 | 74.83522 | 37863 ft | 431 kts | 289° |
| 2026-05-07 03:00 | 31.29649 | 74.76785 | 37857 ft | 430 kts | 290° |
| 2026-05-07 03:00 | 31.31312 | 74.70087 | 37856 ft | 430 kts | 290° |
| 2026-05-07 03:01 | 31.33016 | 74.63360 | 37852 ft | 427 kts | 292° |
| 2026-05-07 03:01 | 31.35540 | 74.57175 | 37852 ft | 420 kts | 307° |
| 2026-05-07 03:02 | 31.39548 | 74.52196 | 37839 ft | 419 kts | 319° |
| 2026-05-07 03:02 | 31.44111 | 74.47900 | 37830 ft | 420 kts | 322° |
| 2026-05-07 03:03 | 31.48786 | 74.43765 | 37833 ft | 420 kts | 322° |
| 2026-05-07 03:03 | 31.53485 | 74.39607 | 37837 ft | 420 kts | 322° |
| 2026-05-07 03:04 | 31.58159 | 74.35431 | 37834 ft | 420 kts | 322° |
| 2026-05-07 03:04 | 31.62826 | 74.31233 | 37837 ft | 420 kts | 321° |
| 2026-05-07 03:05 | 31.67497 | 74.27013 | 37837 ft | 420 kts | 321° |
| 2026-05-07 03:05 | 31.72139 | 74.22810 | 37847 ft | 420 kts | 321° |
| 2026-05-07 03:06 | 31.76763 | 74.18617 | 37839 ft | 420 kts | 321° |
| 2026-05-07 03:06 | 31.81391 | 74.14414 | 37844 ft | 419 kts | 321° |
| 2026-05-07 03:07 | 31.86042 | 74.10184 | 37857 ft | 420 kts | 322° |
| 2026-05-07 03:07 | 31.90667 | 74.05972 | 37840 ft | 418 kts | 321° |
| 2026-05-07 03:08 | 31.95292 | 74.01755 | 37836 ft | 418 kts | 322° |
| 2026-05-07 03:08 | 31.99914 | 73.97536 | 37838 ft | 418 kts | 322° |
| 2026-05-07 03:09 | 32.04548 | 73.93300 | 37842 ft | 418 kts | 322° |
| 2026-05-07 03:09 | 32.09156 | 73.89083 | 37841 ft | 418 kts | 322° |
| 2026-05-07 03:10 | 32.13752 | 73.84872 | 37839 ft | 418 kts | 322° |
| 2026-05-07 03:10 | 32.18375 | 73.80629 | 37827 ft | 420 kts | 322° |
| 2026-05-07 03:11 | 32.23015 | 73.76366 | 37827 ft | 420 kts | 322° |
| 2026-05-07 03:11 | 32.27631 | 73.72119 | 37828 ft | 420 kts | 322° |
| 2026-05-07 03:12 | 32.32272 | 73.67844 | 37830 ft | 419 kts | 322° |
| 2026-05-07 03:12 | 32.36855 | 73.63616 | 37829 ft | 419 kts | 322° |
| 2026-05-07 03:13 | 32.41454 | 73.59367 | 37835 ft | 420 kts | 322° |
| 2026-05-07 03:13 | 32.46069 | 73.55098 | 37834 ft | 421 kts | 322° |
| 2026-05-07 03:14 | 32.50692 | 73.50814 | 37842 ft | 421 kts | 322° |
| 2026-05-07 03:15 | 32.57640 | 73.44370 | 37849 ft | 421 kts | 322° |
| 2026-05-07 03:15 | 32.62262 | 73.40074 | 37854 ft | 420 kts | 322° |
| 2026-05-07 03:16 | 32.66893 | 73.35764 | 37861 ft | 421 kts | 322° |
| 2026-05-07 03:16 | 32.71524 | 73.31450 | 37870 ft | 422 kts | 322° |
| 2026-05-07 03:17 | 32.75908 | 73.26823 | 37888 ft | 422 kts | 314° |
| 2026-05-07 03:17 | 32.79633 | 73.21381 | 37901 ft | 424 kts | 307° |
| 2026-05-07 03:18 | 32.82953 | 73.15552 | 37907 ft | 426 kts | 305° |
| 2026-05-07 03:18 | 32.86198 | 73.09644 | 37920 ft | 426 kts | 305° |
| 2026-05-07 03:19 | 32.89449 | 73.03724 | 37919 ft | 426 kts | 305° |
| 2026-05-07 03:19 | 32.92695 | 72.97834 | 37918 ft | 426 kts | 305° |
| 2026-05-07 03:20 | 32.95966 | 72.91908 | 37909 ft | 426 kts | 305° |
| 2026-05-07 03:20 | 32.99236 | 72.85980 | 37909 ft | 425 kts | 305° |
| 2026-05-07 03:21 | 33.02480 | 72.80093 | 37904 ft | 426 kts | 305° |
| 2026-05-07 03:21 | 33.05738 | 72.74174 | 37902 ft | 426 kts | 306° |
| 2026-05-07 03:22 | 33.08999 | 72.68238 | 37894 ft | 426 kts | 306° |
| 2026-05-07 03:22 | 33.12249 | 72.62313 | 37894 ft | 426 kts | 306° |
| 2026-05-07 03:23 | 33.15489 | 72.56399 | 37888 ft | 426 kts | 306° |
| 2026-05-07 03:23 | 33.18734 | 72.50466 | 37889 ft | 426 kts | 306° |
| 2026-05-07 03:24 | 33.22002 | 72.44482 | 37875 ft | 426 kts | 305° |
| 2026-05-07 03:24 | 33.25223 | 72.38571 | 37867 ft | 425 kts | 305° |
| 2026-05-07 03:25 | 33.28457 | 72.32629 | 37859 ft | 425 kts | 305° |
| 2026-05-07 03:25 | 33.31690 | 72.26678 | 37858 ft | 425 kts | 305° |
| 2026-05-07 03:26 | 33.34908 | 72.20744 | 37864 ft | 425 kts | 305° |
| 2026-05-07 03:26 | 33.38145 | 72.14768 | 37869 ft | 426 kts | 305° |
| 2026-05-07 03:27 | 33.41372 | 72.08800 | 37868 ft | 427 kts | 305° |
| 2026-05-07 03:27 | 33.44582 | 72.02854 | 37864 ft | 426 kts | 305° |
| 2026-05-07 03:28 | 33.47795 | 71.96893 | 37865 ft | 426 kts | 305° |
| 2026-05-07 03:28 | 33.50930 | 71.90868 | 37873 ft | 426 kts | 301° |
| 2026-05-07 03:29 | 33.52962 | 71.84154 | 37887 ft | 434 kts | 285° |
| 2026-05-07 03:29 | 33.53388 | 71.76882 | 37899 ft | 441 kts | 274° |
| 2026-05-07 03:30 | 33.53050 | 71.69526 | 37911 ft | 444 kts | 271° |
| 2026-05-07 03:30 | 33.52536 | 71.62144 | 37909 ft | 445 kts | 270° |
| 2026-05-07 03:31 | 33.52023 | 71.54779 | 37911 ft | 444 kts | 271° |
| 2026-05-07 03:31 | 33.51535 | 71.47386 | 37919 ft | 444 kts | 271° |
| 2026-05-07 03:32 | 33.51069 | 71.40055 | 37950 ft | 443 kts | 271° |
| 2026-05-07 03:32 | 33.50610 | 71.32666 | 37990 ft | 442 kts | 271° |
| 2026-05-07 03:33 | 33.50150 | 71.25282 | 38009 ft | 442 kts | 271° |
| 2026-05-07 03:33 | 33.49691 | 71.17973 | 38003 ft | 442 kts | 271° |
| 2026-05-07 03:34 | 33.49312 | 71.10606 | 38016 ft | 439 kts | 275° |
| 2026-05-07 03:34 | 33.50166 | 71.03495 | 38024 ft | 427 kts | 292° |
| 2026-05-07 03:35 | 33.52652 | 70.97128 | 38020 ft | 422 kts | 303° |
| 2026-05-07 03:35 | 33.56253 | 70.91641 | 38061 ft | 417 kts | 315° |
| 2026-05-07 03:36 | 33.60466 | 70.86848 | 38113 ft | 417 kts | 318° |
| 2026-05-07 03:36 | 33.64774 | 70.82168 | 38159 ft | 418 kts | 318° |
| 2026-05-07 03:37 | 33.69055 | 70.77457 | 38203 ft | 418 kts | 317° |
| 2026-05-07 03:37 | 33.73303 | 70.72711 | 38259 ft | 416 kts | 317° |
| 2026-05-07 03:38 | 33.77558 | 70.67913 | 38258 ft | 416 kts | 317° |
| 2026-05-07 03:38 | 33.81761 | 70.63151 | 38272 ft | 416 kts | 317° |
| 2026-05-07 03:39 | 33.86008 | 70.58326 | 38301 ft | 416 kts | 317° |
| 2026-05-07 03:39 | 33.90192 | 70.53500 | 38324 ft | 417 kts | 314° |
| 2026-05-07 03:40 | 33.93898 | 70.48093 | 38335 ft | 417 kts | 306° |
| 2026-05-07 03:40 | 33.96898 | 70.42088 | 38360 ft | 418 kts | 301° |
| 2026-05-07 03:41 | 33.99639 | 70.35898 | 38412 ft | 418 kts | 300° |
| 2026-05-07 03:41 | 34.02339 | 70.29684 | 38421 ft | 418 kts | 300° |
| 2026-05-07 03:42 | 34.05053 | 70.23460 | 38429 ft | 418 kts | 300° |
| 2026-05-07 03:42 | 34.07758 | 70.17281 | 38424 ft | 418 kts | 300° |
| 2026-05-07 03:43 | 34.10484 | 70.11057 | 38432 ft | 418 kts | 300° |
| 2026-05-07 03:43 | 34.13217 | 70.04814 | 38443 ft | 419 kts | 300° |
| 2026-05-07 03:44 | 34.15931 | 69.98607 | 38452 ft | 417 kts | 300° |
| 2026-05-07 03:44 | 34.18646 | 69.92378 | 38426 ft | 416 kts | 300° |
| 2026-05-07 03:45 | 34.21329 | 69.86170 | 38419 ft | 418 kts | 300° |
| 2026-05-07 03:45 | 34.23987 | 69.79989 | 38402 ft | 415 kts | 300° |
| 2026-05-07 03:46 | 34.26647 | 69.73794 | 38394 ft | 414 kts | 299° |
| 2026-05-07 03:46 | 34.29281 | 69.67653 | 38421 ft | 415 kts | 300° |
| 2026-05-07 03:47 | 34.31953 | 69.61415 | 38427 ft | 414 kts | 300° |
| 2026-05-07 03:47 | 34.34588 | 69.55254 | 38430 ft | 414 kts | 299° |
| 2026-05-07 03:48 | 34.37241 | 69.49040 | 38432 ft | 415 kts | 300° |
| 2026-05-07 03:48 | 34.39878 | 69.42850 | 38414 ft | 414 kts | 300° |
| 2026-05-07 03:49 | 34.42529 | 69.36619 | 38394 ft | 414 kts | 299° |
| 2026-05-07 03:49 | 34.45151 | 69.30445 | 38367 ft | 415 kts | 298° |
| 2026-05-07 03:50 | 34.47802 | 69.24188 | 38348 ft | 413 kts | 299° |
| 2026-05-07 03:50 | 34.50437 | 69.17976 | 38342 ft | 415 kts | 299° |
| 2026-05-07 03:51 | 34.53400 | 69.12007 | 38348 ft | 413 kts | 305° |
| 2026-05-07 03:51 | 34.56769 | 69.06313 | 38344 ft | 412 kts | 307° |
| 2026-05-07 03:52 | 34.60165 | 69.00747 | 38357 ft | 412 kts | 307° |
| 2026-05-07 03:52 | 34.63579 | 68.95117 | 38385 ft | 411 kts | 307° |
| 2026-05-07 03:53 | 34.66956 | 68.89500 | 38410 ft | 411 kts | 307° |
| 2026-05-07 03:53 | 34.70331 | 68.83852 | 38446 ft | 411 kts | 306° |
| 2026-05-07 03:54 | 34.73718 | 68.78166 | 38480 ft | 411 kts | 306° |
| 2026-05-07 03:54 | 34.77070 | 68.72525 | 38506 ft | 412 kts | 307° |
| 2026-05-07 03:55 | 34.80428 | 68.66866 | 38491 ft | 412 kts | 307° |
| 2026-05-07 03:55 | 34.83785 | 68.61201 | 38496 ft | 412 kts | 306° |
| 2026-05-07 03:56 | 34.87137 | 68.55535 | 38495 ft | 414 kts | 307° |
| 2026-05-07 03:56 | 34.90510 | 68.49824 | 38520 ft | 412 kts | 306° |
| 2026-05-07 03:57 | 34.93841 | 68.44176 | 38529 ft | 413 kts | 306° |
| 2026-05-07 03:57 | 34.97195 | 68.38475 | 38539 ft | 411 kts | 306° |
| 2026-05-07 03:58 | 35.00525 | 68.32811 | 38560 ft | 412 kts | 305° |
| 2026-05-07 03:58 | 35.03867 | 68.27116 | 38557 ft | 411 kts | 306° |
| 2026-05-07 03:59 | 35.07180 | 68.21410 | 38533 ft | 412 kts | 305° |
| 2026-05-07 03:59 | 35.10428 | 68.15668 | 38561 ft | 411 kts | 304° |
| 2026-05-07 04:00 | 35.13692 | 68.09865 | 38544 ft | 414 kts | 304° |
| 2026-05-07 04:00 | 35.16967 | 68.04045 | 38515 ft | 415 kts | 304° |
| 2026-05-07 04:01 | 35.20236 | 67.98236 | 38526 ft | 414 kts | 305° |
| 2026-05-07 04:01 | 35.23510 | 67.92417 | 38498 ft | 414 kts | 304° |
| 2026-05-07 04:02 | 35.26749 | 67.86649 | 38516 ft | 414 kts | 304° |
| 2026-05-07 04:02 | 35.30039 | 67.80794 | 38538 ft | 414 kts | 305° |
| 2026-05-07 04:03 | 35.33313 | 67.75047 | 38571 ft | 413 kts | 305° |
| 2026-05-07 04:03 | 35.36610 | 67.69280 | 38543 ft | 412 kts | 304° |
| 2026-05-07 04:04 | 35.39900 | 67.63515 | 38535 ft | 414 kts | 304° |
| 2026-05-07 04:04 | 35.43199 | 67.57719 | 38510 ft | 414 kts | 305° |
| 2026-05-07 04:05 | 35.46496 | 67.51910 | 38539 ft | 414 kts | 305° |
| 2026-05-07 04:05 | 35.49781 | 67.46111 | 38517 ft | 413 kts | 305° |
| 2026-05-07 04:06 | 35.53059 | 67.40318 | 38564 ft | 412 kts | 304° |
| 2026-05-07 04:06 | 35.56361 | 67.34466 | 38545 ft | 414 kts | 304° |
| 2026-05-07 04:07 | 35.59636 | 67.28652 | 38542 ft | 415 kts | 304° |
| 2026-05-07 04:07 | 35.62925 | 67.22805 | 38494 ft | 415 kts | 304° |
| 2026-05-07 04:08 | 35.66179 | 67.17011 | 38534 ft | 413 kts | 304° |
| 2026-05-07 04:08 | 35.69459 | 67.11160 | 38439 ft | 415 kts | 304° |
| 2026-05-07 04:09 | 35.72733 | 67.05312 | 38387 ft | 414 kts | 304° |
| 2026-05-07 04:09 | 35.76014 | 66.99445 | 38374 ft | 414 kts | 303° |
| 2026-05-07 04:10 | 35.79265 | 66.93619 | 38356 ft | 415 kts | 304° |
| 2026-05-07 04:10 | 35.82563 | 66.87714 | 38306 ft | 415 kts | 304° |
| 2026-05-07 04:11 | 35.85833 | 66.81875 | 38345 ft | 414 kts | 304° |
| 2026-05-07 04:11 | 35.89103 | 66.76031 | 38302 ft | 415 kts | 304° |
| 2026-05-07 04:12 | 35.92368 | 66.70185 | 38313 ft | 414 kts | 304° |
| 2026-05-07 04:12 | 35.95643 | 66.64307 | 38314 ft | 415 kts | 304° |
| 2026-05-07 04:13 | 35.98910 | 66.58434 | 38227 ft | 414 kts | 304° |
| 2026-05-07 04:13 | 36.02182 | 66.52541 | 38230 ft | 415 kts | 303° |
| 2026-05-07 04:14 | 36.05446 | 66.46654 | 38215 ft | 413 kts | 303° |
| 2026-05-07 04:14 | 36.08703 | 66.40768 | 38200 ft | 414 kts | 303° |
| 2026-05-07 04:15 | 36.11961 | 66.34866 | 38202 ft | 415 kts | 303° |
| 2026-05-07 04:15 | 36.15231 | 66.28938 | 38213 ft | 414 kts | 303° |
| 2026-05-07 04:16 | 36.18468 | 66.23060 | 38219 ft | 415 kts | 303° |
| 2026-05-07 04:16 | 36.21716 | 66.17148 | 38187 ft | 415 kts | 303° |
| 2026-05-07 04:17 | 36.24960 | 66.11231 | 38171 ft | 416 kts | 302° |
| 2026-05-07 04:17 | 36.28212 | 66.05283 | 38121 ft | 414 kts | 303° |
| 2026-05-07 04:18 | 36.31451 | 65.99351 | 38073 ft | 416 kts | 303° |
| 2026-05-07 04:18 | 36.34681 | 65.93422 | 38073 ft | 415 kts | 302° |
| 2026-05-07 04:19 | 36.37902 | 65.87502 | 38076 ft | 415 kts | 303° |
| 2026-05-07 04:19 | 36.41151 | 65.81522 | 38043 ft | 416 kts | 302° |
| 2026-05-07 04:20 | 36.44387 | 65.75548 | 38013 ft | 416 kts | 302° |
| 2026-05-07 04:20 | 36.47615 | 65.69582 | 38021 ft | 415 kts | 302° |
| 2026-05-07 04:21 | 36.52455 | 65.60619 | 38002 ft | 416 kts | 302° |
| 2026-05-07 04:21 | 36.55700 | 65.54594 | 37994 ft | 418 kts | 302° |
| 2026-05-07 04:22 | 36.58940 | 65.48568 | 38012 ft | 421 kts | 302° |
| 2026-05-07 04:22 | 36.62205 | 65.42487 | 37989 ft | 421 kts | 302° |
| 2026-05-07 04:23 | 36.65458 | 65.36415 | 37988 ft | 423 kts | 302° |
| 2026-05-07 04:23 | 36.68746 | 65.30271 | 37980 ft | 422 kts | 302° |
| 2026-05-07 04:24 | 36.71986 | 65.24206 | 37967 ft | 422 kts | 302° |
| 2026-05-07 04:24 | 36.75258 | 65.18069 | 37952 ft | 423 kts | 302° |
| 2026-05-07 04:25 | 36.78521 | 65.11934 | 37941 ft | 424 kts | 302° |
| 2026-05-07 04:25 | 36.81792 | 65.05776 | 37924 ft | 423 kts | 302° |
| 2026-05-07 04:26 | 36.85045 | 64.99640 | 37929 ft | 424 kts | 301° |
| 2026-05-07 04:26 | 36.88296 | 64.93492 | 37918 ft | 423 kts | 302° |
| 2026-05-07 04:27 | 36.91544 | 64.87343 | 37910 ft | 423 kts | 301° |
| 2026-05-07 04:27 | 36.94642 | 64.81150 | 37911 ft | 422 kts | 297° |
| 2026-05-07 04:28 | 36.97044 | 64.74493 | 37906 ft | 420 kts | 289° |
| 2026-05-07 04:28 | 36.98850 | 64.67513 | 37915 ft | 420 kts | 287° |
| 2026-05-07 04:29 | 37.00532 | 64.60476 | 37921 ft | 422 kts | 287° |
| 2026-05-07 04:29 | 37.02200 | 64.53467 | 37918 ft | 420 kts | 287° |
| 2026-05-07 04:30 | 37.03876 | 64.46428 | 37915 ft | 420 kts | 287° |
| 2026-05-07 04:30 | 37.05546 | 64.39422 | 37918 ft | 419 kts | 287° |
| 2026-05-07 04:31 | 37.07217 | 64.32400 | 37921 ft | 421 kts | 286° |
| 2026-05-07 04:31 | 37.08873 | 64.25435 | 37919 ft | 419 kts | 286° |
| 2026-05-07 04:32 | 37.10540 | 64.18402 | 37922 ft | 421 kts | 286° |
| 2026-05-07 04:32 | 37.12199 | 64.11375 | 37922 ft | 419 kts | 286° |
| 2026-05-07 04:33 | 37.13839 | 64.04408 | 37924 ft | 418 kts | 286° |
| 2026-05-07 04:33 | 37.15492 | 63.97370 | 37923 ft | 420 kts | 286° |
| 2026-05-07 04:34 | 37.17120 | 63.90418 | 37926 ft | 418 kts | 285° |
| 2026-05-07 04:34 | 37.18750 | 63.83437 | 37926 ft | 417 kts | 285° |
| 2026-05-07 04:35 | 37.20367 | 63.76483 | 37927 ft | 416 kts | 285° |
| 2026-05-07 04:35 | 37.21984 | 63.69511 | 37934 ft | 417 kts | 285° |
| 2026-05-07 04:36 | 37.23608 | 63.62496 | 37937 ft | 416 kts | 285° |
| 2026-05-07 04:36 | 37.25213 | 63.55536 | 37931 ft | 416 kts | 285° |
| 2026-05-07 04:37 | 37.26819 | 63.48556 | 37936 ft | 415 kts | 285° |
| 2026-05-07 04:37 | 37.28413 | 63.41602 | 37931 ft | 414 kts | 285° |
| 2026-05-07 04:38 | 37.30001 | 63.34655 | 37928 ft | 415 kts | 285° |
| 2026-05-07 04:38 | 37.31599 | 63.27652 | 37930 ft | 413 kts | 285° |
| 2026-05-07 04:39 | 37.33181 | 63.20695 | 37929 ft | 414 kts | 285° |
| 2026-05-07 04:39 | 37.34758 | 63.13739 | 37924 ft | 411 kts | 284° |
| 2026-05-07 04:40 | 37.36317 | 63.06838 | 37921 ft | 412 kts | 284° |
| 2026-05-07 04:40 | 37.37873 | 62.99926 | 37927 ft | 411 kts | 284° |
| 2026-05-07 04:41 | 37.39428 | 62.92994 | 37918 ft | 412 kts | 284° |
| 2026-05-07 04:41 | 37.40984 | 62.86051 | 37918 ft | 413 kts | 284° |
| 2026-05-07 04:42 | 37.42540 | 62.79083 | 37922 ft | 413 kts | 284° |
| 2026-05-07 04:42 | 37.44089 | 62.72118 | 37920 ft | 413 kts | 284° |
| 2026-05-07 04:43 | 37.45629 | 62.65178 | 37924 ft | 415 kts | 284° |
| 2026-05-07 04:43 | 37.47181 | 62.58163 | 37919 ft | 414 kts | 284° |
| 2026-05-07 04:44 | 37.48729 | 62.51141 | 37916 ft | 415 kts | 284° |
| 2026-05-07 04:44 | 37.50267 | 62.44148 | 37920 ft | 414 kts | 284° |
| 2026-05-07 04:45 | 37.51798 | 62.37159 | 37918 ft | 415 kts | 284° |
| 2026-05-07 04:45 | 37.53327 | 62.30162 | 37915 ft | 414 kts | 283° |
| 2026-05-07 04:46 | 37.54855 | 62.23147 | 37918 ft | 415 kts | 283° |
| 2026-05-07 04:46 | 37.56390 | 62.16079 | 37908 ft | 416 kts | 283° |
| 2026-05-07 04:47 | 37.57904 | 62.09082 | 37897 ft | 415 kts | 283° |
| 2026-05-07 04:47 | 37.59427 | 62.02026 | 37893 ft | 416 kts | 283° |
| 2026-05-07 04:48 | 37.60937 | 61.95008 | 37893 ft | 416 kts | 283° |
| 2026-05-07 04:48 | 37.62732 | 61.88023 | 37888 ft | 417 kts | 290° |
| 2026-05-07 04:49 | 37.65191 | 61.81326 | 37889 ft | 420 kts | 293° |
| 2026-05-07 04:49 | 37.67839 | 61.74792 | 37899 ft | 420 kts | 294° |
| 2026-05-07 04:50 | 37.70523 | 61.68214 | 37899 ft | 420 kts | 294° |
| 2026-05-07 04:50 | 37.73187 | 61.61611 | 37904 ft | 420 kts | 294° |
| 2026-05-07 04:51 | 37.75806 | 61.55056 | 37907 ft | 420 kts | 294° |
| 2026-05-07 04:51 | 37.78427 | 61.48459 | 37906 ft | 420 kts | 293° |
| 2026-05-07 04:52 | 37.81049 | 61.41839 | 37917 ft | 419 kts | 293° |
| 2026-05-07 04:52 | 37.83674 | 61.35190 | 37912 ft | 420 kts | 293° |
| 2026-05-07 04:53 | 37.86274 | 61.28588 | 37917 ft | 420 kts | 293° |
| 2026-05-07 04:53 | 37.88881 | 61.21958 | 37913 ft | 419 kts | 293° |
| 2026-05-07 04:54 | 37.91460 | 61.15380 | 37916 ft | 418 kts | 293° |
| 2026-05-07 04:54 | 37.94047 | 61.08771 | 37914 ft | 419 kts | 292° |
| 2026-05-07 04:55 | 37.96636 | 61.02140 | 37917 ft | 419 kts | 292° |
| 2026-05-07 04:55 | 37.99227 | 60.95495 | 37865 ft | 420 kts | 292° |
| 2026-05-07 04:56 | 38.01799 | 60.88882 | 37922 ft | 420 kts | 292° |
| 2026-05-07 04:56 | 38.04385 | 60.82221 | 37923 ft | 422 kts | 292° |
| 2026-05-07 04:57 | 38.06966 | 60.75552 | 37938 ft | 422 kts | 292° |
| 2026-05-07 04:57 | 38.09549 | 60.68868 | 37942 ft | 420 kts | 292° |
| 2026-05-07 04:58 | 38.12116 | 60.62211 | 37943 ft | 420 kts | 292° |
| 2026-05-07 04:58 | 38.14674 | 60.55562 | 37944 ft | 422 kts | 292° |
| 2026-05-07 04:59 | 38.17252 | 60.48843 | 37937 ft | 423 kts | 292° |
| 2026-05-07 04:59 | 38.19824 | 60.42130 | 37948 ft | 423 kts | 292° |
| 2026-05-07 05:00 | 38.22411 | 60.35363 | 37939 ft | 423 kts | 292° |
| 2026-05-07 05:00 | 38.24984 | 60.28622 | 37952 ft | 421 kts | 291° |
| 2026-05-07 05:01 | 38.27547 | 60.21885 | 37951 ft | 422 kts | 291° |
| 2026-05-07 05:01 | 38.30105 | 60.15146 | 37950 ft | 422 kts | 291° |
| 2026-05-07 05:02 | 38.32671 | 60.08371 | 37954 ft | 423 kts | 291° |
| 2026-05-07 05:02 | 38.35203 | 60.01675 | 37954 ft | 422 kts | 291° |
| 2026-05-07 05:03 | 38.37745 | 59.94936 | 37948 ft | 422 kts | 291° |
| 2026-05-07 05:03 | 38.40292 | 59.88171 | 37949 ft | 423 kts | 291° |
| 2026-05-07 05:04 | 38.42844 | 59.81377 | 37952 ft | 423 kts | 291° |
| 2026-05-07 05:04 | 38.45383 | 59.74597 | 37966 ft | 424 kts | 291° |
| 2026-05-07 05:05 | 38.47913 | 59.67828 | 37967 ft | 424 kts | 291° |
| 2026-05-07 05:05 | 38.50468 | 59.60978 | 37953 ft | 425 kts | 291° |
| 2026-05-07 05:06 | 38.53000 | 59.54172 | 37966 ft | 424 kts | 291° |
| 2026-05-07 05:06 | 38.55522 | 59.47379 | 37966 ft | 425 kts | 291° |
| 2026-05-07 05:07 | 38.58052 | 59.40554 | 37971 ft | 424 kts | 291° |
| 2026-05-07 05:07 | 38.60607 | 59.33707 | 37966 ft | 426 kts | 291° |
| 2026-05-07 05:08 | 38.63293 | 59.26934 | 37969 ft | 426 kts | 292° |
| 2026-05-07 05:08 | 38.66008 | 59.20197 | 37964 ft | 426 kts | 292° |
| 2026-05-07 05:09 | 38.68710 | 59.13456 | 37969 ft | 426 kts | 292° |
| 2026-05-07 05:09 | 38.71397 | 59.06704 | 37967 ft | 427 kts | 292° |
| 2026-05-07 05:10 | 38.74081 | 58.99929 | 37970 ft | 426 kts | 292° |
| 2026-05-07 05:10 | 38.76767 | 58.93127 | 37978 ft | 428 kts | 292° |
| 2026-05-07 05:11 | 38.79440 | 58.86338 | 37974 ft | 427 kts | 292° |
| 2026-05-07 05:11 | 38.82101 | 58.79562 | 37980 ft | 426 kts | 292° |
| 2026-05-07 05:12 | 38.84758 | 58.72779 | 37981 ft | 426 kts | 292° |
| 2026-05-07 05:12 | 38.87397 | 58.66029 | 37990 ft | 425 kts | 292° |
| 2026-05-07 05:13 | 38.89813 | 58.59131 | 37990 ft | 423 kts | 287° |
| 2026-05-07 05:13 | 38.91760 | 58.52062 | 37997 ft | 421 kts | 285° |
| 2026-05-07 05:14 | 38.93643 | 58.44869 | 37996 ft | 421 kts | 285° |
| 2026-05-07 05:14 | 38.95515 | 58.37801 | 37994 ft | 420 kts | 285° |
| 2026-05-07 05:15 | 38.97436 | 58.30636 | 37988 ft | 420 kts | 284° |
| 2026-05-07 05:15 | 38.99357 | 58.23508 | 37990 ft | 421 kts | 284° |
| 2026-05-07 05:16 | 39.01273 | 58.16403 | 37990 ft | 420 kts | 285° |
| 2026-05-07 05:16 | 39.03174 | 58.09340 | 37993 ft | 419 kts | 284° |
| 2026-05-07 05:17 | 39.05078 | 58.02241 | 37997 ft | 419 kts | 284° |
| 2026-05-07 05:17 | 39.06974 | 57.95154 | 37998 ft | 418 kts | 284° |
| 2026-05-07 05:18 | 39.08866 | 57.88057 | 37994 ft | 420 kts | 284° |
| 2026-05-07 05:18 | 39.10757 | 57.80954 | 38003 ft | 418 kts | 284° |
| 2026-05-07 05:19 | 39.12633 | 57.73878 | 38003 ft | 419 kts | 284° |
| 2026-05-07 05:19 | 39.14512 | 57.66772 | 38005 ft | 418 kts | 284° |
| 2026-05-07 05:20 | 39.16396 | 57.59636 | 38011 ft | 418 kts | 284° |
| 2026-05-07 05:20 | 39.18251 | 57.52581 | 38012 ft | 417 kts | 284° |
| 2026-05-07 05:21 | 39.21024 | 57.41998 | 38015 ft | 416 kts | 284° |
| 2026-05-07 05:22 | 39.22879 | 57.34895 | 38015 ft | 417 kts | 283° |
| 2026-05-07 05:22 | 39.24717 | 57.27838 | 38023 ft | 416 kts | 283° |
| 2026-05-07 05:23 | 39.26563 | 57.20729 | 38021 ft | 416 kts | 283° |
| 2026-05-07 05:23 | 39.28387 | 57.13685 | 38027 ft | 415 kts | 283° |
| 2026-05-07 05:24 | 39.30211 | 57.06620 | 38030 ft | 416 kts | 283° |
| 2026-05-07 05:24 | 39.32032 | 56.99549 | 38034 ft | 413 kts | 283° |
| 2026-05-07 05:25 | 39.33858 | 56.92440 | 38035 ft | 414 kts | 283° |
| 2026-05-07 05:25 | 39.35664 | 56.85382 | 38036 ft | 416 kts | 283° |
| 2026-05-07 05:26 | 39.37463 | 56.78278 | 38038 ft | 413 kts | 282° |
| 2026-05-07 05:26 | 39.39136 | 56.71112 | 38038 ft | 414 kts | 281° |
| 2026-05-07 05:27 | 39.40743 | 56.64013 | 38041 ft | 415 kts | 281° |
| 2026-05-07 05:27 | 39.42372 | 56.56836 | 38040 ft | 414 kts | 281° |
| 2026-05-07 05:28 | 39.43995 | 56.49707 | 38045 ft | 415 kts | 281° |
| 2026-05-07 05:28 | 39.45627 | 56.42543 | 38044 ft | 414 kts | 281° |
| 2026-05-07 05:29 | 39.47246 | 56.35422 | 38045 ft | 415 kts | 281° |
| 2026-05-07 05:29 | 39.48869 | 56.28265 | 38048 ft | 415 kts | 281° |
| 2026-05-07 05:30 | 39.50494 | 56.21080 | 38048 ft | 414 kts | 281° |
| 2026-05-07 05:30 | 39.52117 | 56.13873 | 38051 ft | 416 kts | 280° |
| 2026-05-07 05:31 | 39.53721 | 56.06743 | 38050 ft | 415 kts | 280° |
| 2026-05-07 05:31 | 39.55332 | 55.99548 | 38053 ft | 414 kts | 280° |
| 2026-05-07 05:32 | 39.56926 | 55.92405 | 38053 ft | 414 kts | 280° |
| 2026-05-07 05:32 | 39.58526 | 55.85237 | 38057 ft | 415 kts | 280° |
| 2026-05-07 05:33 | 39.60142 | 55.78023 | 38057 ft | 415 kts | 280° |
| 2026-05-07 05:33 | 39.61751 | 55.70826 | 38057 ft | 417 kts | 281° |
| 2026-05-07 05:34 | 39.63360 | 55.63614 | 38057 ft | 417 kts | 280° |
| 2026-05-07 05:34 | 39.64969 | 55.56376 | 38060 ft | 417 kts | 280° |
| 2026-05-07 05:35 | 39.66569 | 55.49146 | 38063 ft | 416 kts | 280° |
| 2026-05-07 05:35 | 39.68153 | 55.41953 | 38062 ft | 418 kts | 280° |
| 2026-05-07 05:36 | 39.69752 | 55.34672 | 38065 ft | 417 kts | 279° |
| 2026-05-07 05:36 | 39.71348 | 55.27366 | 38067 ft | 419 kts | 279° |
| 2026-05-07 05:37 | 39.72927 | 55.20112 | 38068 ft | 419 kts | 279° |
| 2026-05-07 05:37 | 39.74505 | 55.12830 | 38070 ft | 418 kts | 279° |
| 2026-05-07 05:38 | 39.76067 | 55.05593 | 38070 ft | 419 kts | 279° |
| 2026-05-07 05:38 | 39.77646 | 54.98249 | 38071 ft | 420 kts | 279° |
| 2026-05-07 05:39 | 39.79206 | 54.90972 | 38075 ft | 420 kts | 279° |
| 2026-05-07 05:39 | 39.80784 | 54.83598 | 38080 ft | 420 kts | 279° |
| 2026-05-07 05:40 | 39.82333 | 54.76330 | 38079 ft | 420 kts | 279° |
| 2026-05-07 05:40 | 39.83895 | 54.69001 | 38080 ft | 421 kts | 279° |
| 2026-05-07 05:41 | 39.85458 | 54.61678 | 38081 ft | 420 kts | 279° |
| 2026-05-07 05:41 | 39.87009 | 54.54386 | 38081 ft | 421 kts | 279° |
| 2026-05-07 05:42 | 39.88581 | 54.46962 | 38081 ft | 422 kts | 279° |
| 2026-05-07 05:42 | 39.90126 | 54.39625 | 38081 ft | 421 kts | 279° |
| 2026-05-07 05:43 | 39.91665 | 54.32247 | 38081 ft | 421 kts | 279° |
| 2026-05-07 05:43 | 39.93194 | 54.24889 | 38084 ft | 423 kts | 279° |
| 2026-05-07 05:44 | 39.94727 | 54.17485 | 38081 ft | 423 kts | 279° |
| 2026-05-07 05:44 | 39.96256 | 54.10079 | 38078 ft | 423 kts | 279° |
| 2026-05-07 05:45 | 39.97769 | 54.02725 | 38082 ft | 423 kts | 279° |
| 2026-05-07 05:45 | 39.99292 | 53.95298 | 38084 ft | 423 kts | 279° |
| 2026-05-07 05:46 | 40.00802 | 53.87909 | 38078 ft | 423 kts | 279° |
| 2026-05-07 05:46 | 40.02317 | 53.80474 | 38081 ft | 423 kts | 279° |
| 2026-05-07 05:47 | 40.03816 | 53.73088 | 38074 ft | 422 kts | 279° |
| 2026-05-07 05:47 | 40.05318 | 53.65657 | 38089 ft | 422 kts | 279° |
| 2026-05-07 05:48 | 40.06809 | 53.58252 | 38084 ft | 423 kts | 279° |
| 2026-05-07 05:48 | 40.08299 | 53.50824 | 38096 ft | 423 kts | 279° |
| 2026-05-07 05:49 | 40.09787 | 53.43385 | 38097 ft | 424 kts | 279° |
| 2026-05-07 05:49 | 40.11279 | 53.35898 | 38105 ft | 423 kts | 279° |
| 2026-05-07 05:50 | 40.12760 | 53.28445 | 38107 ft | 424 kts | 279° |
| 2026-05-07 05:50 | 40.14233 | 53.20996 | 38104 ft | 423 kts | 279° |
| 2026-05-07 05:51 | 40.15693 | 53.13591 | 38108 ft | 424 kts | 279° |
| 2026-05-07 05:51 | 40.17162 | 53.06116 | 38104 ft | 423 kts | 279° |
| 2026-05-07 05:52 | 40.18622 | 52.98651 | 38107 ft | 425 kts | 279° |
| 2026-05-07 05:52 | 40.20076 | 52.91190 | 38107 ft | 424 kts | 278° |
| 2026-05-07 05:53 | 40.21528 | 52.83718 | 38106 ft | 423 kts | 278° |
| 2026-05-07 05:53 | 40.22966 | 52.76285 | 38114 ft | 424 kts | 279° |
| 2026-05-07 05:54 | 40.24400 | 52.68850 | 38109 ft | 423 kts | 279° |
| 2026-05-07 05:54 | 40.25840 | 52.61352 | 38111 ft | 423 kts | 279° |
| 2026-05-07 05:55 | 40.27272 | 52.53878 | 38112 ft | 423 kts | 279° |
| 2026-05-07 05:55 | 40.28689 | 52.46469 | 38117 ft | 421 kts | 278° |
| 2026-05-07 05:56 | 40.30111 | 52.39007 | 38119 ft | 422 kts | 278° |
| 2026-05-07 05:56 | 40.31531 | 52.31529 | 38125 ft | 422 kts | 278° |
| 2026-05-07 05:57 | 40.32935 | 52.24108 | 38120 ft | 421 kts | 278° |
| 2026-05-07 05:57 | 40.34335 | 52.16671 | 38124 ft | 421 kts | 278° |
| 2026-05-07 05:58 | 40.35731 | 52.09230 | 38123 ft | 421 kts | 278° |
| 2026-05-07 05:58 | 40.37133 | 52.01732 | 38126 ft | 422 kts | 278° |
| 2026-05-07 05:59 | 40.38519 | 51.94283 | 38115 ft | 423 kts | 278° |
| 2026-05-07 05:59 | 40.39903 | 51.86824 | 38124 ft | 422 kts | 278° |
| 2026-05-07 06:00 | 40.41286 | 51.79340 | 38127 ft | 422 kts | 278° |
| 2026-05-07 06:00 | 40.42667 | 51.71834 | 38126 ft | 424 kts | 278° |
| 2026-05-07 06:01 | 40.44043 | 51.64325 | 38119 ft | 424 kts | 278° |
| 2026-05-07 06:01 | 40.45419 | 51.56795 | 38123 ft | 423 kts | 278° |
| 2026-05-07 06:02 | 40.46782 | 51.49314 | 38128 ft | 423 kts | 278° |
| 2026-05-07 06:02 | 40.48256 | 51.41810 | 38130 ft | 425 kts | 279° |
| 2026-05-07 06:03 | 40.49799 | 51.34350 | 38133 ft | 425 kts | 279° |
| 2026-05-07 06:03 | 40.51349 | 51.26840 | 38123 ft | 425 kts | 279° |
| 2026-05-07 06:04 | 40.52873 | 51.19374 | 38124 ft | 425 kts | 279° |
| 2026-05-07 06:04 | 40.54391 | 51.11861 | 38133 ft | 426 kts | 279° |
| 2026-05-07 06:05 | 40.55896 | 51.04373 | 38131 ft | 426 kts | 279° |
| 2026-05-07 06:05 | 40.57397 | 50.96873 | 38125 ft | 427 kts | 279° |
| 2026-05-07 06:06 | 40.58908 | 50.89285 | 38139 ft | 427 kts | 279° |
| 2026-05-07 06:06 | 40.60399 | 50.81779 | 38127 ft | 427 kts | 279° |
| 2026-05-07 06:07 | 40.61891 | 50.74233 | 38124 ft | 428 kts | 279° |
| 2026-05-07 06:07 | 40.63380 | 50.66674 | 38112 ft | 428 kts | 279° |
| 2026-05-07 06:08 | 40.64876 | 50.59050 | 38117 ft | 429 kts | 279° |
| 2026-05-07 06:08 | 40.66356 | 50.51485 | 38121 ft | 429 kts | 279° |
| 2026-05-07 06:09 | 40.67837 | 50.43881 | 38106 ft | 429 kts | 279° |
| 2026-05-07 06:09 | 40.69313 | 50.36265 | 38112 ft | 431 kts | 279° |
| 2026-05-07 06:10 | 40.70788 | 50.28615 | 38100 ft | 430 kts | 279° |
| 2026-05-07 06:10 | 40.72259 | 50.20954 | 38107 ft | 431 kts | 279° |
| 2026-05-07 06:11 | 40.73728 | 50.13278 | 38117 ft | 431 kts | 279° |
| 2026-05-07 06:11 | 40.75187 | 50.05631 | 38102 ft | 430 kts | 279° |
| 2026-05-07 06:12 | 40.76643 | 49.97958 | 38111 ft | 432 kts | 279° |
| 2026-05-07 06:12 | 40.78094 | 49.90288 | 38108 ft | 431 kts | 279° |
| 2026-05-07 06:13 | 40.79538 | 49.82627 | 38108 ft | 432 kts | 279° |
| 2026-05-07 06:13 | 40.80981 | 49.74935 | 38108 ft | 432 kts | 279° |
| 2026-05-07 06:14 | 40.82413 | 49.67274 | 38108 ft | 432 kts | 279° |
| 2026-05-07 06:14 | 40.83849 | 49.59568 | 38112 ft | 432 kts | 279° |
| 2026-05-07 06:15 | 40.85278 | 49.51857 | 38111 ft | 432 kts | 279° |
| 2026-05-07 06:15 | 40.86710 | 49.44105 | 38111 ft | 433 kts | 279° |
| 2026-05-07 06:16 | 40.88137 | 49.36341 | 38109 ft | 433 kts | 279° |
| 2026-05-07 06:16 | 40.89525 | 49.28589 | 38110 ft | 433 kts | 278° |
| 2026-05-07 06:17 | 40.90847 | 49.20782 | 38118 ft | 434 kts | 278° |
| 2026-05-07 06:17 | 40.92151 | 49.12986 | 38123 ft | 433 kts | 277° |
| 2026-05-07 06:18 | 40.93450 | 49.05219 | 38126 ft | 433 kts | 277° |
| 2026-05-07 06:18 | 40.94746 | 48.97468 | 38129 ft | 434 kts | 277° |
| 2026-05-07 06:19 | 40.96052 | 48.89639 | 38135 ft | 435 kts | 278° |
| 2026-05-07 06:19 | 40.97348 | 48.81841 | 38137 ft | 434 kts | 278° |
| 2026-05-07 06:20 | 40.98647 | 48.73997 | 38139 ft | 435 kts | 278° |
| 2026-05-07 06:20 | 40.99943 | 48.66129 | 38145 ft | 437 kts | 278° |
| 2026-05-07 06:21 | 41.01243 | 48.58209 | 38139 ft | 436 kts | 278° |
| 2026-05-07 06:21 | 41.02523 | 48.50375 | 38131 ft | 437 kts | 278° |
| 2026-05-07 06:22 | 41.03803 | 48.42504 | 38129 ft | 438 kts | 278° |
| 2026-05-07 06:22 | 41.05734 | 48.30566 | 38136 ft | 438 kts | 277° |
| 2026-05-07 06:23 | 41.06995 | 48.22724 | 38135 ft | 438 kts | 277° |
| 2026-05-07 06:23 | 41.08263 | 48.14794 | 38132 ft | 438 kts | 277° |
| 2026-05-07 06:24 | 41.09516 | 48.06931 | 38125 ft | 438 kts | 277° |
| 2026-05-07 06:24 | 41.10774 | 47.98992 | 38134 ft | 439 kts | 277° |
| 2026-05-07 06:25 | 41.12035 | 47.91005 | 38135 ft | 440 kts | 277° |
| 2026-05-07 06:25 | 41.13285 | 47.83041 | 38135 ft | 442 kts | 277° |
| 2026-05-07 06:26 | 41.14535 | 47.75048 | 38142 ft | 441 kts | 278° |
| 2026-05-07 06:26 | 41.15773 | 47.67101 | 38147 ft | 441 kts | 277° |
| 2026-05-07 06:27 | 41.17003 | 47.59162 | 38144 ft | 441 kts | 278° |
| 2026-05-07 06:27 | 41.18232 | 47.51196 | 38138 ft | 441 kts | 278° |
| 2026-05-07 06:28 | 41.19457 | 47.43201 | 38151 ft | 443 kts | 278° |
| 2026-05-07 06:28 | 41.20681 | 47.35177 | 38153 ft | 443 kts | 278° |
| 2026-05-07 06:29 | 41.21899 | 47.27162 | 38146 ft | 442 kts | 277° |
| 2026-05-07 06:29 | 41.23107 | 47.19165 | 38142 ft | 443 kts | 277° |
| 2026-05-07 06:30 | 41.24321 | 47.11103 | 38133 ft | 443 kts | 277° |
| 2026-05-07 06:30 | 41.25520 | 47.03088 | 38128 ft | 443 kts | 277° |
| 2026-05-07 06:31 | 41.26717 | 46.95052 | 38120 ft | 443 kts | 277° |
| 2026-05-07 06:31 | 41.27905 | 46.87027 | 38130 ft | 445 kts | 277° |
| 2026-05-07 06:32 | 41.29097 | 46.78937 | 38131 ft | 445 kts | 277° |
| 2026-05-07 06:32 | 41.30265 | 46.70928 | 38134 ft | 445 kts | 277° |
| 2026-05-07 06:33 | 41.31411 | 46.62794 | 38135 ft | 445 kts | 277° |
| 2026-05-07 06:33 | 41.32533 | 46.54723 | 38136 ft | 446 kts | 277° |
| 2026-05-07 06:34 | 41.33654 | 46.46614 | 38135 ft | 446 kts | 277° |
| 2026-05-07 06:34 | 41.34773 | 46.38506 | 38133 ft | 448 kts | 277° |
| 2026-05-07 06:35 | 41.35895 | 46.30339 | 38133 ft | 447 kts | 276° |
| 2026-05-07 06:35 | 41.37005 | 46.22226 | 38123 ft | 447 kts | 277° |
| 2026-05-07 06:36 | 41.38108 | 46.14111 | 38124 ft | 448 kts | 277° |
| 2026-05-07 06:36 | 41.39212 | 46.05953 | 38127 ft | 447 kts | 277° |
| 2026-05-07 06:37 | 41.40306 | 45.97830 | 38125 ft | 447 kts | 277° |
| 2026-05-07 06:37 | 41.41397 | 45.89683 | 38128 ft | 447 kts | 277° |
| 2026-05-07 06:38 | 41.42484 | 45.81508 | 38131 ft | 448 kts | 277° |
| 2026-05-07 06:38 | 41.43567 | 45.73331 | 38130 ft | 447 kts | 277° |
| 2026-05-07 06:39 | 41.44637 | 45.65196 | 38130 ft | 449 kts | 277° |
| 2026-05-07 06:39 | 41.45710 | 45.56992 | 38131 ft | 449 kts | 277° |
| 2026-05-07 06:40 | 41.46775 | 45.48808 | 38129 ft | 449 kts | 277° |
| 2026-05-07 06:40 | 41.47833 | 45.40627 | 38133 ft | 449 kts | 277° |
| 2026-05-07 06:41 | 41.48824 | 45.32402 | 38130 ft | 448 kts | 274° |
| 2026-05-07 06:41 | 41.49517 | 45.24173 | 38134 ft | 447 kts | 272° |
| 2026-05-07 06:42 | 41.50132 | 45.15848 | 38133 ft | 447 kts | 272° |
| 2026-05-07 06:42 | 41.50752 | 45.07603 | 38131 ft | 447 kts | 273° |
| 2026-05-07 06:43 | 41.51392 | 44.99322 | 38132 ft | 447 kts | 273° |
| 2026-05-07 06:43 | 41.52041 | 44.91037 | 38131 ft | 448 kts | 273° |
| 2026-05-07 06:44 | 41.52689 | 44.82765 | 38134 ft | 449 kts | 273° |
| 2026-05-07 06:44 | 41.53334 | 44.74477 | 38133 ft | 449 kts | 273° |
| 2026-05-07 06:45 | 41.53974 | 44.66183 | 38138 ft | 449 kts | 273° |
| 2026-05-07 06:45 | 41.54608 | 44.57884 | 38142 ft | 450 kts | 273° |
| 2026-05-07 06:46 | 41.55238 | 44.49562 | 38140 ft | 452 kts | 273° |
| 2026-05-07 06:46 | 41.55863 | 44.41238 | 38139 ft | 451 kts | 273° |
| 2026-05-07 06:47 | 41.56484 | 44.32877 | 38138 ft | 452 kts | 272° |
| 2026-05-07 06:47 | 41.57098 | 44.24534 | 38143 ft | 451 kts | 273° |
| 2026-05-07 06:48 | 41.57726 | 44.16192 | 38142 ft | 452 kts | 273° |
| 2026-05-07 06:48 | 41.58380 | 44.07854 | 38131 ft | 452 kts | 274° |
| 2026-05-07 06:49 | 41.59035 | 43.99519 | 38127 ft | 452 kts | 273° |
| 2026-05-07 06:49 | 41.59686 | 43.91106 | 38124 ft | 453 kts | 273° |
| 2026-05-07 06:50 | 41.60326 | 43.82718 | 38125 ft | 454 kts | 273° |
| 2026-05-07 06:50 | 41.60961 | 43.74285 | 38125 ft | 454 kts | 273° |
| 2026-05-07 06:51 | 41.61583 | 43.65939 | 38126 ft | 454 kts | 274° |
| 2026-05-07 06:51 | 41.62207 | 43.57472 | 38129 ft | 456 kts | 274° |
| 2026-05-07 06:52 | 41.62821 | 43.49056 | 38140 ft | 456 kts | 274° |
| 2026-05-07 06:52 | 41.63432 | 43.40631 | 38145 ft | 457 kts | 274° |
| 2026-05-07 06:53 | 41.64044 | 43.32130 | 38150 ft | 457 kts | 273° |
| 2026-05-07 06:53 | 41.64645 | 43.23701 | 38154 ft | 457 kts | 273° |
| 2026-05-07 06:54 | 41.65241 | 43.15255 | 38152 ft | 457 kts | 273° |
| 2026-05-07 06:54 | 41.65834 | 43.06748 | 38145 ft | 459 kts | 273° |
| 2026-05-07 06:55 | 41.66422 | 42.98215 | 38130 ft | 459 kts | 273° |
| 2026-05-07 06:55 | 41.67000 | 42.89750 | 38133 ft | 460 kts | 273° |
| 2026-05-07 06:56 | 41.67576 | 42.81212 | 38129 ft | 460 kts | 273° |
| 2026-05-07 06:56 | 41.68141 | 42.72696 | 38127 ft | 461 kts | 273° |
| 2026-05-07 06:57 | 41.68699 | 42.64201 | 38124 ft | 460 kts | 274° |
| 2026-05-07 06:57 | 41.69257 | 42.55604 | 38124 ft | 461 kts | 273° |
| 2026-05-07 06:58 | 41.69806 | 42.47043 | 38127 ft | 461 kts | 274° |
| 2026-05-07 06:58 | 41.70350 | 42.38476 | 38131 ft | 462 kts | 274° |
| 2026-05-07 06:59 | 41.70886 | 42.29930 | 38139 ft | 461 kts | 273° |
| 2026-05-07 06:59 | 41.71413 | 42.21417 | 38144 ft | 461 kts | 273° |
| 2026-05-07 07:00 | 41.71939 | 42.12811 | 38149 ft | 462 kts | 273° |
| 2026-05-07 07:00 | 41.72456 | 42.04257 | 38165 ft | 461 kts | 273° |
| 2026-05-07 07:01 | 41.72964 | 41.95719 | 38163 ft | 463 kts | 273° |
| 2026-05-07 07:01 | 41.73470 | 41.87117 | 38181 ft | 462 kts | 273° |
| 2026-05-07 07:02 | 41.73968 | 41.78543 | 38184 ft | 464 kts | 273° |
| 2026-05-07 07:02 | 41.74459 | 41.69977 | 38184 ft | 463 kts | 273° |
| 2026-05-07 07:03 | 41.74945 | 41.61364 | 38186 ft | 464 kts | 273° |
| 2026-05-07 07:03 | 41.75423 | 41.52797 | 38184 ft | 463 kts | 274° |
| 2026-05-07 07:04 | 41.75897 | 41.44180 | 38186 ft | 464 kts | 274° |
| 2026-05-07 07:04 | 41.76363 | 41.35608 | 38186 ft | 463 kts | 274° |
| 2026-05-07 07:05 | 41.76825 | 41.26980 | 38188 ft | 464 kts | 273° |
| 2026-05-07 07:05 | 41.77279 | 41.18344 | 38189 ft | 465 kts | 273° |
| 2026-05-07 07:06 | 41.77726 | 41.09759 | 38188 ft | 463 kts | 273° |
| 2026-05-07 07:06 | 41.78168 | 41.01160 | 38190 ft | 463 kts | 273° |
| 2026-05-07 07:07 | 41.78601 | 40.92590 | 38188 ft | 464 kts | 273° |
| 2026-05-07 07:07 | 41.79033 | 40.83907 | 38192 ft | 465 kts | 273° |
| 2026-05-07 07:08 | 41.79454 | 40.75304 | 38188 ft | 465 kts | 273° |
| 2026-05-07 07:08 | 41.79873 | 40.66630 | 38193 ft | 465 kts | 273° |
| 2026-05-07 07:09 | 41.80271 | 40.57996 | 38192 ft | 465 kts | 273° |
| 2026-05-07 07:09 | 41.80647 | 40.49353 | 38193 ft | 466 kts | 273° |
| 2026-05-07 07:10 | 41.81014 | 40.40733 | 38192 ft | 464 kts | 273° |
| 2026-05-07 07:10 | 41.81376 | 40.32065 | 38193 ft | 465 kts | 272° |
| 2026-05-07 07:11 | 41.81732 | 40.23447 | 38193 ft | 465 kts | 272° |
| 2026-05-07 07:11 | 41.82084 | 40.14780 | 38193 ft | 465 kts | 272° |
| 2026-05-07 07:12 | 41.82428 | 40.06155 | 38194 ft | 466 kts | 272° |
| 2026-05-07 07:12 | 41.82766 | 39.97491 | 38195 ft | 466 kts | 272° |
| 2026-05-07 07:13 | 41.83098 | 39.88833 | 38195 ft | 467 kts | 272° |
| 2026-05-07 07:13 | 41.83424 | 39.80121 | 38195 ft | 465 kts | 273° |
| 2026-05-07 07:14 | 41.83746 | 39.71374 | 38196 ft | 466 kts | 273° |
| 2026-05-07 07:14 | 41.84059 | 39.62685 | 38196 ft | 465 kts | 273° |
| 2026-05-07 07:15 | 41.84363 | 39.54054 | 38196 ft | 466 kts | 273° |
| 2026-05-07 07:15 | 41.84665 | 39.45327 | 38196 ft | 467 kts | 273° |
| 2026-05-07 07:16 | 41.84959 | 39.36646 | 38193 ft | 467 kts | 273° |
| 2026-05-07 07:16 | 41.85246 | 39.27963 | 38193 ft | 468 kts | 272° |
| 2026-05-07 07:17 | 41.85529 | 39.19224 | 38194 ft | 466 kts | 272° |
| 2026-05-07 07:17 | 41.85806 | 39.10459 | 38194 ft | 467 kts | 272° |
| 2026-05-07 07:18 | 41.86074 | 39.01761 | 38193 ft | 468 kts | 272° |
| 2026-05-07 07:18 | 41.86337 | 38.93017 | 38194 ft | 468 kts | 272° |
| 2026-05-07 07:19 | 41.86592 | 38.84303 | 38195 ft | 467 kts | 272° |
| 2026-05-07 07:19 | 41.86842 | 38.75550 | 38190 ft | 467 kts | 272° |
| 2026-05-07 07:20 | 41.87085 | 38.66837 | 38195 ft | 467 kts | 272° |
| 2026-05-07 07:20 | 41.87320 | 38.58154 | 38190 ft | 466 kts | 272° |
| 2026-05-07 07:21 | 41.87549 | 38.49453 | 38191 ft | 468 kts | 272° |
| 2026-05-07 07:21 | 41.87772 | 38.40730 | 38194 ft | 468 kts | 272° |
| 2026-05-07 07:22 | 41.87989 | 38.31979 | 38193 ft | 467 kts | 272° |
| 2026-05-07 07:22 | 41.88197 | 38.23332 | 38193 ft | 467 kts | 272° |
| 2026-05-07 07:23 | 41.88399 | 38.14613 | 38189 ft | 467 kts | 272° |
| 2026-05-07 07:23 | 41.88596 | 38.05880 | 38198 ft | 469 kts | 272° |
| 2026-05-07 07:24 | 41.88787 | 37.97087 | 38199 ft | 468 kts | 272° |
| 2026-05-07 07:24 | 41.88970 | 37.88369 | 38193 ft | 468 kts | 272° |
| 2026-05-07 07:25 | 41.89233 | 37.75280 | 38197 ft | 467 kts | 272° |
| 2026-05-07 07:26 | 41.89398 | 37.66577 | 38185 ft | 468 kts | 272° |
| 2026-05-07 07:26 | 41.89557 | 37.57873 | 38186 ft | 467 kts | 272° |
| 2026-05-07 07:27 | 41.89711 | 37.49146 | 38183 ft | 467 kts | 272° |
| 2026-05-07 07:27 | 41.89857 | 37.40440 | 38179 ft | 468 kts | 273° |
| 2026-05-07 07:28 | 41.89997 | 37.31719 | 38180 ft | 468 kts | 272° |
| 2026-05-07 07:28 | 41.90130 | 37.23053 | 38185 ft | 469 kts | 272° |
| 2026-05-07 07:29 | 41.90257 | 37.14334 | 38176 ft | 468 kts | 272° |
| 2026-05-07 07:29 | 41.90377 | 37.05576 | 38173 ft | 467 kts | 272° |
| 2026-05-07 07:30 | 41.90704 | 36.96893 | 38179 ft | 467 kts | 276° |
| 2026-05-07 07:30 | 41.91331 | 36.88243 | 38174 ft | 466 kts | 277° |
| 2026-05-07 07:31 | 41.91994 | 36.79603 | 38175 ft | 467 kts | 277° |
| 2026-05-07 07:31 | 41.92623 | 36.70970 | 38176 ft | 466 kts | 277° |
| 2026-05-07 07:32 | 41.93222 | 36.62285 | 38170 ft | 467 kts | 277° |
| 2026-05-07 07:32 | 41.93796 | 36.53628 | 38175 ft | 467 kts | 277° |
| 2026-05-07 07:33 | 41.94357 | 36.44965 | 38171 ft | 466 kts | 277° |
| 2026-05-07 07:33 | 41.94908 | 36.36303 | 38174 ft | 466 kts | 277° |
| 2026-05-07 07:34 | 41.95454 | 36.27598 | 38169 ft | 466 kts | 276° |
| 2026-05-07 07:34 | 41.95990 | 36.18951 | 38180 ft | 466 kts | 276° |
| 2026-05-07 07:35 | 41.96521 | 36.10286 | 38174 ft | 466 kts | 276° |
| 2026-05-07 07:35 | 41.97044 | 36.01649 | 38175 ft | 466 kts | 276° |
| 2026-05-07 07:36 | 41.97562 | 35.92955 | 38174 ft | 465 kts | 277° |
| 2026-05-07 07:36 | 41.98073 | 35.84294 | 38166 ft | 465 kts | 277° |
| 2026-05-07 07:37 | 41.98575 | 35.75671 | 38167 ft | 465 kts | 277° |
| 2026-05-07 07:37 | 41.99072 | 35.67021 | 38167 ft | 464 kts | 277° |
| 2026-05-07 07:38 | 41.99561 | 35.58399 | 38169 ft | 464 kts | 277° |
| 2026-05-07 07:38 | 42.00042 | 35.49799 | 38152 ft | 464 kts | 277° |
| 2026-05-07 07:39 | 42.00518 | 35.41178 | 38167 ft | 464 kts | 277° |
| 2026-05-07 07:39 | 42.00988 | 35.32529 | 38167 ft | 464 kts | 276° |
| 2026-05-07 07:40 | 42.01452 | 35.23886 | 38160 ft | 463 kts | 276° |
| 2026-05-07 07:40 | 42.01905 | 35.15308 | 38160 ft | 461 kts | 276° |
| 2026-05-07 07:41 | 42.02289 | 35.06654 | 38157 ft | 462 kts | 273° |
| 2026-05-07 07:41 | 42.02058 | 34.98021 | 38162 ft | 463 kts | 269° |
| 2026-05-07 07:42 | 42.01551 | 34.89434 | 38152 ft | 464 kts | 268° |
| 2026-05-07 07:42 | 42.01021 | 34.80750 | 38160 ft | 466 kts | 268° |
| 2026-05-07 07:43 | 42.00550 | 34.72098 | 38144 ft | 465 kts | 269° |
| 2026-05-07 07:43 | 42.00110 | 34.63456 | 38153 ft | 464 kts | 269° |
| 2026-05-07 07:44 | 41.99675 | 34.54790 | 38136 ft | 463 kts | 269° |
| 2026-05-07 07:44 | 41.99238 | 34.46141 | 38151 ft | 462 kts | 269° |
| 2026-05-07 07:45 | 41.98798 | 34.37553 | 38145 ft | 463 kts | 270° |
| 2026-05-07 07:45 | 41.98349 | 34.28925 | 38146 ft | 464 kts | 269° |
| 2026-05-07 07:46 | 41.97893 | 34.20293 | 38138 ft | 464 kts | 269° |
| 2026-05-07 07:46 | 41.97428 | 34.11615 | 38138 ft | 464 kts | 269° |
| 2026-05-07 07:47 | 41.96958 | 34.02987 | 38136 ft | 463 kts | 269° |
| 2026-05-07 07:47 | 41.96483 | 33.94390 | 38136 ft | 462 kts | 269° |
| 2026-05-07 07:48 | 41.96004 | 33.85814 | 38127 ft | 463 kts | 269° |
| 2026-05-07 07:48 | 41.95514 | 33.77156 | 38148 ft | 463 kts | 269° |
| 2026-05-07 07:49 | 41.95021 | 33.68595 | 38134 ft | 461 kts | 269° |
| 2026-05-07 07:49 | 41.94517 | 33.59953 | 38138 ft | 462 kts | 269° |
| 2026-05-07 07:50 | 41.94007 | 33.51341 | 38140 ft | 461 kts | 269° |
| 2026-05-07 07:50 | 41.93494 | 33.42801 | 38161 ft | 460 kts | 269° |
| 2026-05-07 07:51 | 41.92972 | 33.34211 | 38150 ft | 460 kts | 269° |
| 2026-05-07 07:51 | 41.92447 | 33.25669 | 38147 ft | 460 kts | 269° |
| 2026-05-07 07:52 | 41.91914 | 33.17107 | 38142 ft | 460 kts | 269° |
| 2026-05-07 07:52 | 41.91377 | 33.08583 | 38138 ft | 460 kts | 269° |
| 2026-05-07 07:53 | 41.90830 | 32.99985 | 38138 ft | 460 kts | 269° |
| 2026-05-07 07:53 | 41.90276 | 32.91412 | 38144 ft | 459 kts | 269° |
| 2026-05-07 07:54 | 41.89723 | 32.82952 | 38138 ft | 457 kts | 269° |
| 2026-05-07 07:54 | 41.89159 | 32.74396 | 38135 ft | 457 kts | 269° |
| 2026-05-07 07:55 | 41.88596 | 32.65951 | 38150 ft | 458 kts | 269° |
| 2026-05-07 07:55 | 41.88021 | 32.57433 | 38146 ft | 458 kts | 269° |
| 2026-05-07 07:56 | 41.87632 | 32.48937 | 38143 ft | 455 kts | 275° |
| 2026-05-07 07:56 | 41.88490 | 32.40655 | 38142 ft | 448 kts | 287° |
| 2026-05-07 07:57 | 41.90242 | 32.32673 | 38147 ft | 445 kts | 291° |
| 2026-05-07 07:57 | 41.92203 | 32.24813 | 38154 ft | 445 kts | 291° |
| 2026-05-07 07:58 | 41.94166 | 32.16936 | 38144 ft | 445 kts | 291° |
| 2026-05-07 07:58 | 41.96080 | 32.09063 | 38148 ft | 446 kts | 290° |
| 2026-05-07 07:59 | 41.97969 | 32.01151 | 38155 ft | 446 kts | 290° |
| 2026-05-07 07:59 | 41.99838 | 31.93237 | 38150 ft | 446 kts | 290° |
| 2026-05-07 08:00 | 42.01699 | 31.85308 | 38151 ft | 445 kts | 290° |
| 2026-05-07 08:00 | 42.03547 | 31.77412 | 38153 ft | 443 kts | 290° |
| 2026-05-07 08:01 | 42.05396 | 31.69495 | 38148 ft | 444 kts | 290° |
| 2026-05-07 08:01 | 42.07242 | 31.61562 | 38151 ft | 443 kts | 291° |
| 2026-05-07 08:02 | 42.09071 | 31.53673 | 38146 ft | 445 kts | 291° |
| 2026-05-07 08:02 | 42.10909 | 31.45717 | 38152 ft | 445 kts | 291° |
| 2026-05-07 08:03 | 42.12729 | 31.37806 | 38152 ft | 444 kts | 291° |
| 2026-05-07 08:03 | 42.14541 | 31.29896 | 38154 ft | 442 kts | 290° |
| 2026-05-07 08:04 | 42.16360 | 31.21932 | 38157 ft | 444 kts | 290° |
| 2026-05-07 08:04 | 42.18150 | 31.14061 | 38157 ft | 442 kts | 290° |
| 2026-05-07 08:05 | 42.19962 | 31.06070 | 38156 ft | 443 kts | 290° |
| 2026-05-07 08:05 | 42.21739 | 30.98203 | 38152 ft | 442 kts | 290° |
| 2026-05-07 08:06 | 42.23521 | 30.90289 | 38147 ft | 442 kts | 290° |
| 2026-05-07 08:06 | 42.25304 | 30.82342 | 38152 ft | 442 kts | 290° |
| 2026-05-07 08:07 | 42.27072 | 30.74431 | 38153 ft | 441 kts | 290° |
| 2026-05-07 08:07 | 42.28830 | 30.66538 | 38155 ft | 440 kts | 290° |
| 2026-05-07 08:08 | 42.30589 | 30.58612 | 38154 ft | 441 kts | 290° |
| 2026-05-07 08:08 | 42.32348 | 30.50651 | 38148 ft | 439 kts | 290° |
| 2026-05-07 08:09 | 42.34090 | 30.42739 | 38148 ft | 441 kts | 290° |
| 2026-05-07 08:09 | 42.35827 | 30.34827 | 38141 ft | 439 kts | 290° |
| 2026-05-07 08:10 | 42.37568 | 30.26865 | 38148 ft | 440 kts | 290° |
| 2026-05-07 08:10 | 42.39281 | 30.18999 | 38149 ft | 439 kts | 290° |
| 2026-05-07 08:11 | 42.40996 | 30.11095 | 38145 ft | 439 kts | 290° |
| 2026-05-07 08:11 | 42.42701 | 30.03204 | 38146 ft | 438 kts | 289° |
| 2026-05-07 08:12 | 42.44408 | 29.95281 | 38141 ft | 438 kts | 290° |
| 2026-05-07 08:12 | 42.46261 | 29.87446 | 38143 ft | 436 kts | 295° |
| 2026-05-07 08:13 | 42.48801 | 29.80067 | 38142 ft | 433 kts | 300° |
| 2026-05-07 08:13 | 42.51667 | 29.72891 | 38143 ft | 432 kts | 301° |
| 2026-05-07 08:14 | 42.54562 | 29.65778 | 38145 ft | 432 kts | 301° |
| 2026-05-07 08:14 | 42.57383 | 29.58564 | 38141 ft | 433 kts | 298° |
| 2026-05-07 08:15 | 42.59434 | 29.50886 | 38138 ft | 437 kts | 289° |
| 2026-05-07 08:15 | 42.60843 | 29.42883 | 38140 ft | 439 kts | 286° |
| 2026-05-07 08:16 | 42.62115 | 29.34794 | 38135 ft | 438 kts | 285° |
| 2026-05-07 08:16 | 42.63386 | 29.26687 | 38137 ft | 438 kts | 285° |
| 2026-05-07 08:17 | 42.64659 | 29.18665 | 38134 ft | 437 kts | 285° |
| 2026-05-07 08:17 | 42.65942 | 29.10636 | 38132 ft | 437 kts | 285° |
| 2026-05-07 08:18 | 42.67229 | 29.02572 | 38129 ft | 436 kts | 285° |
| 2026-05-07 08:18 | 42.68509 | 28.94541 | 38128 ft | 436 kts | 285° |
| 2026-05-07 08:19 | 42.69788 | 28.86479 | 38135 ft | 436 kts | 285° |
| 2026-05-07 08:19 | 42.71064 | 28.78397 | 38127 ft | 435 kts | 285° |
| 2026-05-07 08:20 | 42.72328 | 28.70349 | 38120 ft | 436 kts | 285° |
| 2026-05-07 08:20 | 42.73586 | 28.62300 | 38119 ft | 436 kts | 285° |
| 2026-05-07 08:21 | 42.74831 | 28.54298 | 38123 ft | 435 kts | 285° |
| 2026-05-07 08:21 | 42.76072 | 28.46279 | 38118 ft | 434 kts | 285° |
| 2026-05-07 08:22 | 42.77316 | 28.38210 | 38112 ft | 434 kts | 285° |
| 2026-05-07 08:22 | 42.78543 | 28.30201 | 38115 ft | 433 kts | 284° |
| 2026-05-07 08:23 | 42.79630 | 28.22145 | 38112 ft | 435 kts | 280° |
| 2026-05-07 08:23 | 42.79638 | 28.13916 | 38109 ft | 442 kts | 267° |
| 2026-05-07 08:24 | 42.78356 | 28.05707 | 38110 ft | 447 kts | 257° |
| 2026-05-07 08:24 | 42.76214 | 27.97707 | 38105 ft | 451 kts | 251° |
| 2026-05-07 08:25 | 42.73082 | 27.90255 | 38101 ft | 459 kts | 239° |
| 2026-05-07 08:25 | 42.69004 | 27.83515 | 38103 ft | 463 kts | 232° |
| 2026-05-07 08:26 | 42.62229 | 27.74162 | 38101 ft | 464 kts | 229° |
| 2026-05-07 08:26 | 42.57611 | 27.68058 | 38102 ft | 465 kts | 229° |
| 2026-05-07 08:27 | 42.52967 | 27.61944 | 38102 ft | 463 kts | 229° |
| 2026-05-07 08:27 | 42.48344 | 27.55849 | 38105 ft | 463 kts | 229° |
| 2026-05-07 08:28 | 42.43747 | 27.49784 | 38102 ft | 463 kts | 229° |
| 2026-05-07 08:28 | 42.39127 | 27.43698 | 38098 ft | 463 kts | 229° |
| 2026-05-07 08:29 | 42.34541 | 27.37664 | 38096 ft | 462 kts | 229° |
| 2026-05-07 08:29 | 42.29905 | 27.31566 | 38097 ft | 463 kts | 229° |
| 2026-05-07 08:30 | 42.25995 | 27.24886 | 38104 ft | 445 kts | 253° |
| 2026-05-07 08:30 | 42.25397 | 27.20882 | 38098 ft | 436 kts | 273° |
| 2026-05-07 08:30 | 42.25893 | 27.16924 | 38099 ft | 428 kts | 293° |
| 2026-05-07 08:31 | 42.27422 | 27.13498 | 38099 ft | 425 kts | 313° |
| 2026-05-07 08:31 | 42.29761 | 27.11099 | 38095 ft | 426 kts | 333° |
| 2026-05-07 08:31 | 42.32617 | 27.10011 | 38090 ft | 433 kts | 352° |
| 2026-05-07 08:31 | 42.35630 | 27.10391 | 38086 ft | 444 kts | 12° |
| 2026-05-07 08:32 | 42.38457 | 27.12257 | 38089 ft | 456 kts | 32° |
| 2026-05-07 08:32 | 42.40675 | 27.15367 | 38092 ft | 468 kts | 51° |
| 2026-05-07 08:32 | 42.43581 | 27.23265 | 38088 ft | 459 kts | 62° |
| 2026-05-07 08:33 | 42.44814 | 27.27127 | 38091 ft | 443 kts | 61° |
| 2026-05-07 08:33 | 42.46084 | 27.30857 | 38091 ft | 426 kts | 59° |
| 2026-05-07 08:33 | 42.47403 | 27.34398 | 38092 ft | 410 kts | 56° |
| 2026-05-07 08:33 | 42.48776 | 27.37666 | 38098 ft | 393 kts | 53° |
| 2026-05-07 08:34 | 42.50239 | 27.40705 | 38098 ft | 376 kts | 49° |
| 2026-05-07 08:34 | 42.51750 | 27.43458 | 38094 ft | 361 kts | 45° |
| 2026-05-07 08:34 | 42.53323 | 27.46028 | 38097 ft | 345 kts | 42° |
| 2026-05-07 08:34 | 42.54924 | 27.48438 | 38109 ft | 332 kts | 40° |
| 2026-05-07 08:35 | 42.58150 | 27.52934 | 38026 ft | 337 kts | 38° |
| 2026-05-07 08:35 | 42.61483 | 27.57401 | 38221 ft | 333 kts | 38° |
| 2026-05-07 08:36 | 42.63130 | 27.59595 | 38433 ft | 335 kts | 38° |
| 2026-05-07 08:36 | 42.64789 | 27.61799 | 38632 ft | 337 kts | 38° |
| 2026-05-07 08:36 | 42.66475 | 27.64036 | 38788 ft | 340 kts | 38° |
| 2026-05-07 08:36 | 42.68142 | 27.66346 | 38864 ft | 347 kts | 46° |
| 2026-05-07 08:37 | 42.69317 | 27.69317 | 38642 ft | 365 kts | 71° |
| 2026-05-07 08:37 | 42.69481 | 27.72744 | 38611 ft | 369 kts | 97° |
| 2026-05-07 08:37 | 42.68659 | 27.76037 | 38722 ft | 375 kts | 120° |
| 2026-05-07 08:37 | 42.67043 | 27.78823 | 38859 ft | 379 kts | 137° |
| 2026-05-07 08:38 | 42.64917 | 27.80966 | 38971 ft | 381 kts | 155° |
| 2026-05-07 08:38 | 42.62407 | 27.82029 | 38813 ft | 381 kts | 181° |
| 2026-05-07 08:38 | 42.59846 | 27.81634 | 38824 ft | 364 kts | 207° |
| 2026-05-07 08:38 | 42.57714 | 27.80016 | 38986 ft | 348 kts | 228° |
| 2026-05-07 08:39 | 42.56133 | 27.77590 | 39187 ft | 337 kts | 244° |
| 2026-05-07 08:39 | 42.55039 | 27.74851 | 39369 ft | 330 kts | 256° |
| 2026-05-07 08:39 | 42.54575 | 27.71844 | 39314 ft | 325 kts | 277° |